<?xml version="1.0" encoding="UTF-8" standalone="no" ?>
<gpx xmlns="http://www.topografix.com/GPX/1/1" xmlns:xsi="http://www.w3.org/2001/XMLSchema-instance" xsi:schemaLocation="http://www.topografix.com/GPX/1/1 http://www.topografix.com/GPX/1/1/gpx.xsd" version="1.1" creator="VisuGPX - https://www.visugpx.com">
  <metadata>
    <name>rando Montayral du 10 avril 2011 (33 Km)</name>
    <desc><![CDATA[[b]Une très belle rando[/b][i]avec des singles mémorables[/i]]]></desc>
  </metadata>
  <trk>
    <name><![CDATA[ACTIVE LOG]]></name>
    <trkseg>
      <trkpt lat="44.46573" lon="0.99805">
        <ele>152.986938</ele>
        <time>2011-04-10T07:05:02Z</time>
      </trkpt>
      <trkpt lat="44.46571" lon="0.99805">
        <ele>153.467651</ele>
        <time>2011-04-10T07:05:05Z</time>
      </trkpt>
      <trkpt lat="44.46567" lon="0.99811">
        <ele>153.948364</ele>
        <time>2011-04-10T07:05:12Z</time>
      </trkpt>
      <trkpt lat="44.46563" lon="0.99817">
        <ele>154.909546</ele>
        <time>2011-04-10T07:05:17Z</time>
      </trkpt>
      <trkpt lat="44.46558" lon="0.99821">
        <ele>155.390259</ele>
        <time>2011-04-10T07:05:21Z</time>
      </trkpt>
      <trkpt lat="44.46546" lon="0.99844">
        <ele>156.351563</ele>
        <time>2011-04-10T07:05:35Z</time>
      </trkpt>
      <trkpt lat="44.46545" lon="0.99846">
        <ele>156.351563</ele>
        <time>2011-04-10T07:05:36Z</time>
      </trkpt>
      <trkpt lat="44.46547" lon="0.99868">
        <ele>158.27417</ele>
        <time>2011-04-10T07:05:46Z</time>
      </trkpt>
      <trkpt lat="44.46544" lon="0.99889">
        <ele>160.196899</ele>
        <time>2011-04-10T07:05:55Z</time>
      </trkpt>
      <trkpt lat="44.46538" lon="0.99898">
        <ele>161.638916</ele>
        <time>2011-04-10T07:06:01Z</time>
      </trkpt>
      <trkpt lat="44.46533" lon="0.99908">
        <ele>163.080811</ele>
        <time>2011-04-10T07:06:07Z</time>
      </trkpt>
      <trkpt lat="44.4652" lon="0.9994">
        <ele>166.445313</ele>
        <time>2011-04-10T07:06:24Z</time>
      </trkpt>
      <trkpt lat="44.46517" lon="0.99947">
        <ele>167.406738</ele>
        <time>2011-04-10T07:06:28Z</time>
      </trkpt>
      <trkpt lat="44.4651" lon="0.99965">
        <ele>171.732666</ele>
        <time>2011-04-10T07:06:40Z</time>
      </trkpt>
      <trkpt lat="44.46506" lon="0.99974">
        <ele>173.174683</ele>
        <time>2011-04-10T07:06:46Z</time>
      </trkpt>
      <trkpt lat="44.46494" lon="0.99993">
        <ele>176.058594</ele>
        <time>2011-04-10T07:06:59Z</time>
      </trkpt>
      <trkpt lat="44.46493" lon="1.00006">
        <ele>177.50061</ele>
        <time>2011-04-10T07:07:06Z</time>
      </trkpt>
      <trkpt lat="44.46485" lon="1.00021">
        <ele>177.981201</ele>
        <time>2011-04-10T07:07:17Z</time>
      </trkpt>
      <trkpt lat="44.46477" lon="1.00029">
        <ele>178.942627</ele>
        <time>2011-04-10T07:07:24Z</time>
      </trkpt>
      <trkpt lat="44.46457" lon="1.00041">
        <ele>180.865234</ele>
        <time>2011-04-10T07:07:40Z</time>
      </trkpt>
      <trkpt lat="44.46441" lon="1.00051">
        <ele>185.671753</ele>
        <time>2011-04-10T07:07:54Z</time>
      </trkpt>
      <trkpt lat="44.46427" lon="1.00056">
        <ele>188.075073</ele>
        <time>2011-04-10T07:08:04Z</time>
      </trkpt>
      <trkpt lat="44.4642" lon="1.00061">
        <ele>189.997681</ele>
        <time>2011-04-10T07:08:10Z</time>
      </trkpt>
      <trkpt lat="44.46401" lon="1.00072">
        <ele>193.362305</ele>
        <time>2011-04-10T07:08:24Z</time>
      </trkpt>
      <trkpt lat="44.46382" lon="1.00088">
        <ele>192.881714</ele>
        <time>2011-04-10T07:08:37Z</time>
      </trkpt>
      <trkpt lat="44.4638" lon="1.00091">
        <ele>192.881714</ele>
        <time>2011-04-10T07:08:38Z</time>
      </trkpt>
      <trkpt lat="44.46379" lon="1.00099">
        <ele>192.401123</ele>
        <time>2011-04-10T07:08:40Z</time>
      </trkpt>
      <trkpt lat="44.46392" lon="1.00159">
        <ele>194.804321</ele>
        <time>2011-04-10T07:08:56Z</time>
      </trkpt>
      <trkpt lat="44.46402" lon="1.00222">
        <ele>197.20752</ele>
        <time>2011-04-10T07:09:12Z</time>
      </trkpt>
      <trkpt lat="44.46406" lon="1.00285">
        <ele>199.61084</ele>
        <time>2011-04-10T07:09:27Z</time>
      </trkpt>
      <trkpt lat="44.46399" lon="1.0033">
        <ele>198.168945</ele>
        <time>2011-04-10T07:09:38Z</time>
      </trkpt>
      <trkpt lat="44.46385" lon="1.00385">
        <ele>199.61084</ele>
        <time>2011-04-10T07:09:52Z</time>
      </trkpt>
      <trkpt lat="44.46395" lon="1.00402">
        <ele>199.61084</ele>
        <time>2011-04-10T07:09:57Z</time>
      </trkpt>
      <trkpt lat="44.46419" lon="1.00434">
        <ele>198.649536</ele>
        <time>2011-04-10T07:10:06Z</time>
      </trkpt>
      <trkpt lat="44.46425" lon="1.00446">
        <ele>198.168945</ele>
        <time>2011-04-10T07:10:08Z</time>
      </trkpt>
      <trkpt lat="44.46434" lon="1.00466">
        <ele>196.726929</ele>
        <time>2011-04-10T07:10:11Z</time>
      </trkpt>
      <trkpt lat="44.46456" lon="1.00489">
        <ele>193.843018</ele>
        <time>2011-04-10T07:10:16Z</time>
      </trkpt>
      <trkpt lat="44.46491" lon="1.00511">
        <ele>188.555786</ele>
        <time>2011-04-10T07:10:22Z</time>
      </trkpt>
      <trkpt lat="44.46509" lon="1.00531">
        <ele>183.268433</ele>
        <time>2011-04-10T07:10:27Z</time>
      </trkpt>
      <trkpt lat="44.46515" lon="1.00539">
        <ele>181.345825</ele>
        <time>2011-04-10T07:10:29Z</time>
      </trkpt>
      <trkpt lat="44.46534" lon="1.00564">
        <ele>176.539307</ele>
        <time>2011-04-10T07:10:33Z</time>
      </trkpt>
      <trkpt lat="44.46567" lon="1.00597">
        <ele>172.213257</ele>
        <time>2011-04-10T07:10:43Z</time>
      </trkpt>
      <trkpt lat="44.46583" lon="1.00605">
        <ele>171.732666</ele>
        <time>2011-04-10T07:10:48Z</time>
      </trkpt>
      <trkpt lat="44.4661" lon="1.00624">
        <ele>171.252075</ele>
        <time>2011-04-10T07:10:57Z</time>
      </trkpt>
      <trkpt lat="44.46624" lon="1.00637">
        <ele>169.329468</ele>
        <time>2011-04-10T07:11:02Z</time>
      </trkpt>
      <trkpt lat="44.46652" lon="1.00672">
        <ele>163.561523</ele>
        <time>2011-04-10T07:11:12Z</time>
      </trkpt>
      <trkpt lat="44.46662" lon="1.00685">
        <ele>161.158203</ele>
        <time>2011-04-10T07:11:16Z</time>
      </trkpt>
      <trkpt lat="44.4667" lon="1.00695">
        <ele>159.716187</ele>
        <time>2011-04-10T07:11:18Z</time>
      </trkpt>
      <trkpt lat="44.46709" lon="1.00744">
        <ele>157.793579</ele>
        <time>2011-04-10T07:11:27Z</time>
      </trkpt>
      <trkpt lat="44.46746" lon="1.00745">
        <ele>153.948364</ele>
        <time>2011-04-10T07:11:34Z</time>
      </trkpt>
      <trkpt lat="44.46769" lon="1.00751">
        <ele>152.986938</ele>
        <time>2011-04-10T07:11:38Z</time>
      </trkpt>
      <trkpt lat="44.46784" lon="1.00759">
        <ele>153.467651</ele>
        <time>2011-04-10T07:11:41Z</time>
      </trkpt>
      <trkpt lat="44.46797" lon="1.00769">
        <ele>154.428955</ele>
        <time>2011-04-10T07:11:44Z</time>
      </trkpt>
      <trkpt lat="44.46827" lon="1.00794">
        <ele>154.428955</ele>
        <time>2011-04-10T07:11:51Z</time>
      </trkpt>
      <trkpt lat="44.46844" lon="1.00806">
        <ele>153.467651</ele>
        <time>2011-04-10T07:11:54Z</time>
      </trkpt>
      <trkpt lat="44.46869" lon="1.00836">
        <ele>151.064209</ele>
        <time>2011-04-10T07:12:01Z</time>
      </trkpt>
      <trkpt lat="44.46869" lon="1.00912">
        <ele>150.583618</ele>
        <time>2011-04-10T07:12:13Z</time>
      </trkpt>
      <trkpt lat="44.4686" lon="1.00973">
        <ele>151.544922</ele>
        <time>2011-04-10T07:12:25Z</time>
      </trkpt>
      <trkpt lat="44.46853" lon="1.0102">
        <ele>153.467651</ele>
        <time>2011-04-10T07:12:36Z</time>
      </trkpt>
      <trkpt lat="44.46853" lon="1.01038">
        <ele>153.948364</ele>
        <time>2011-04-10T07:12:40Z</time>
      </trkpt>
      <trkpt lat="44.46861" lon="1.01052">
        <ele>153.948364</ele>
        <time>2011-04-10T07:12:44Z</time>
      </trkpt>
      <trkpt lat="44.46869" lon="1.0106">
        <ele>152.986938</ele>
        <time>2011-04-10T07:12:46Z</time>
      </trkpt>
      <trkpt lat="44.46883" lon="1.01072">
        <ele>151.064209</ele>
        <time>2011-04-10T07:12:49Z</time>
      </trkpt>
      <trkpt lat="44.46893" lon="1.01083">
        <ele>149.141602</ele>
        <time>2011-04-10T07:12:51Z</time>
      </trkpt>
      <trkpt lat="44.46923" lon="1.01124">
        <ele>143.85437</ele>
        <time>2011-04-10T07:12:57Z</time>
      </trkpt>
      <trkpt lat="44.46953" lon="1.0115">
        <ele>137.125244</ele>
        <time>2011-04-10T07:13:05Z</time>
      </trkpt>
      <trkpt lat="44.4696" lon="1.01155">
        <ele>135.683105</ele>
        <time>2011-04-10T07:13:14Z</time>
      </trkpt>
      <trkpt lat="44.46989" lon="1.01194">
        <ele>133.760498</ele>
        <time>2011-04-10T07:13:21Z</time>
      </trkpt>
      <trkpt lat="44.47012" lon="1.01214">
        <ele>131.3573</ele>
        <time>2011-04-10T07:13:25Z</time>
      </trkpt>
      <trkpt lat="44.47022" lon="1.01219">
        <ele>130.395996</ele>
        <time>2011-04-10T07:13:27Z</time>
      </trkpt>
      <trkpt lat="44.47016" lon="1.01261">
        <ele>129.434692</ele>
        <time>2011-04-10T07:13:35Z</time>
      </trkpt>
      <trkpt lat="44.4699" lon="1.01329">
        <ele>129.434692</ele>
        <time>2011-04-10T07:13:47Z</time>
      </trkpt>
      <trkpt lat="44.46983" lon="1.01352">
        <ele>129.434692</ele>
        <time>2011-04-10T07:13:51Z</time>
      </trkpt>
      <trkpt lat="44.46955" lon="1.0142">
        <ele>132.318604</ele>
        <time>2011-04-10T07:14:05Z</time>
      </trkpt>
      <trkpt lat="44.4693" lon="1.01467">
        <ele>137.125244</ele>
        <time>2011-04-10T07:14:17Z</time>
      </trkpt>
      <trkpt lat="44.46901" lon="1.01516">
        <ele>138.086548</ele>
        <time>2011-04-10T07:14:29Z</time>
      </trkpt>
      <trkpt lat="44.46899" lon="1.01527">
        <ele>137.605835</ele>
        <time>2011-04-10T07:14:31Z</time>
      </trkpt>
      <trkpt lat="44.46896" lon="1.0154">
        <ele>137.125244</ele>
        <time>2011-04-10T07:14:33Z</time>
      </trkpt>
      <trkpt lat="44.46881" lon="1.01566">
        <ele>136.644653</ele>
        <time>2011-04-10T07:14:37Z</time>
      </trkpt>
      <trkpt lat="44.46861" lon="1.01594">
        <ele>135.202515</ele>
        <time>2011-04-10T07:14:41Z</time>
      </trkpt>
      <trkpt lat="44.46829" lon="1.01649">
        <ele>131.837891</ele>
        <time>2011-04-10T07:14:48Z</time>
      </trkpt>
      <trkpt lat="44.46789" lon="1.01703">
        <ele>130.395996</ele>
        <time>2011-04-10T07:14:58Z</time>
      </trkpt>
      <trkpt lat="44.46754" lon="1.01738">
        <ele>132.799316</ele>
        <time>2011-04-10T07:15:06Z</time>
      </trkpt>
      <trkpt lat="44.46743" lon="1.0176">
        <ele>133.279907</ele>
        <time>2011-04-10T07:15:10Z</time>
      </trkpt>
      <trkpt lat="44.4675" lon="1.01773">
        <ele>132.799316</ele>
        <time>2011-04-10T07:15:18Z</time>
      </trkpt>
      <trkpt lat="44.46757" lon="1.01769">
        <ele>131.837891</ele>
        <time>2011-04-10T07:15:20Z</time>
      </trkpt>
      <trkpt lat="44.46771" lon="1.01764">
        <ele>131.3573</ele>
        <time>2011-04-10T07:15:23Z</time>
      </trkpt>
      <trkpt lat="44.46796" lon="1.01765">
        <ele>130.876709</ele>
        <time>2011-04-10T07:15:28Z</time>
      </trkpt>
      <trkpt lat="44.46805" lon="1.01764">
        <ele>130.876709</ele>
        <time>2011-04-10T07:15:30Z</time>
      </trkpt>
      <trkpt lat="44.46843" lon="1.01743">
        <ele>127.031372</ele>
        <time>2011-04-10T07:15:38Z</time>
      </trkpt>
      <trkpt lat="44.46856" lon="1.01715">
        <ele>126.069946</ele>
        <time>2011-04-10T07:15:42Z</time>
      </trkpt>
      <trkpt lat="44.46864" lon="1.01702">
        <ele>126.069946</ele>
        <time>2011-04-10T07:15:44Z</time>
      </trkpt>
      <trkpt lat="44.46889" lon="1.01675">
        <ele>126.550659</ele>
        <time>2011-04-10T07:15:50Z</time>
      </trkpt>
      <trkpt lat="44.46908" lon="1.01651">
        <ele>127.031372</ele>
        <time>2011-04-10T07:15:54Z</time>
      </trkpt>
      <trkpt lat="44.46925" lon="1.01636">
        <ele>127.992554</ele>
        <time>2011-04-10T07:15:57Z</time>
      </trkpt>
      <trkpt lat="44.46992" lon="1.01621">
        <ele>127.511963</ele>
        <time>2011-04-10T07:16:07Z</time>
      </trkpt>
      <trkpt lat="44.47053" lon="1.01607">
        <ele>125.108765</ele>
        <time>2011-04-10T07:16:16Z</time>
      </trkpt>
      <trkpt lat="44.47082" lon="1.01601">
        <ele>124.147339</ele>
        <time>2011-04-10T07:16:21Z</time>
      </trkpt>
      <trkpt lat="44.47093" lon="1.01622">
        <ele>121.26355</ele>
        <time>2011-04-10T07:16:30Z</time>
      </trkpt>
      <trkpt lat="44.47094" lon="1.01629">
        <ele>120.782837</ele>
        <time>2011-04-10T07:16:33Z</time>
      </trkpt>
      <trkpt lat="44.47093" lon="1.01667">
        <ele>120.782837</ele>
        <time>2011-04-10T07:16:47Z</time>
      </trkpt>
      <trkpt lat="44.47092" lon="1.01704">
        <ele>119.34082</ele>
        <time>2011-04-10T07:16:59Z</time>
      </trkpt>
      <trkpt lat="44.47091" lon="1.01753">
        <ele>115.014893</ele>
        <time>2011-04-10T07:17:12Z</time>
      </trkpt>
      <trkpt lat="44.47086" lon="1.0181">
        <ele>108.766235</ele>
        <time>2011-04-10T07:17:27Z</time>
      </trkpt>
      <trkpt lat="44.47083" lon="1.01864">
        <ele>101.075684</ele>
        <time>2011-04-10T07:17:41Z</time>
      </trkpt>
      <trkpt lat="44.4708" lon="1.01914">
        <ele>96.269287</ele>
        <time>2011-04-10T07:17:53Z</time>
      </trkpt>
      <trkpt lat="44.47079" lon="1.01936">
        <ele>94.346558</ele>
        <time>2011-04-10T07:17:59Z</time>
      </trkpt>
      <trkpt lat="44.47071" lon="1.01938">
        <ele>97.711182</ele>
        <time>2011-04-10T07:18:05Z</time>
      </trkpt>
      <trkpt lat="44.47064" lon="1.01925">
        <ele>102.5177</ele>
        <time>2011-04-10T07:18:13Z</time>
      </trkpt>
      <trkpt lat="44.47055" lon="1.01908">
        <ele>107.324341</ele>
        <time>2011-04-10T07:18:24Z</time>
      </trkpt>
      <trkpt lat="44.47045" lon="1.019">
        <ele>112.611572</ele>
        <time>2011-04-10T07:18:32Z</time>
      </trkpt>
      <trkpt lat="44.47032" lon="1.01889">
        <ele>118.860107</ele>
        <time>2011-04-10T07:18:44Z</time>
      </trkpt>
      <trkpt lat="44.47024" lon="1.01881">
        <ele>121.26355</ele>
        <time>2011-04-10T07:18:53Z</time>
      </trkpt>
      <trkpt lat="44.47014" lon="1.01873">
        <ele>123.666748</ele>
        <time>2011-04-10T07:19:02Z</time>
      </trkpt>
      <trkpt lat="44.47013" lon="1.01872">
        <ele>124.147339</ele>
        <time>2011-04-10T07:19:03Z</time>
      </trkpt>
      <trkpt lat="44.47004" lon="1.01868">
        <ele>125.589355</ele>
        <time>2011-04-10T07:19:10Z</time>
      </trkpt>
      <trkpt lat="44.46994" lon="1.01865">
        <ele>128.473389</ele>
        <time>2011-04-10T07:19:18Z</time>
      </trkpt>
      <trkpt lat="44.46989" lon="1.01868">
        <ele>131.837891</ele>
        <time>2011-04-10T07:19:23Z</time>
      </trkpt>
      <trkpt lat="44.46978" lon="1.01878">
        <ele>137.605835</ele>
        <time>2011-04-10T07:19:36Z</time>
      </trkpt>
      <trkpt lat="44.46977" lon="1.0188">
        <ele>138.086548</ele>
        <time>2011-04-10T07:19:37Z</time>
      </trkpt>
      <trkpt lat="44.46976" lon="1.01885">
        <ele>138.567261</ele>
        <time>2011-04-10T07:19:41Z</time>
      </trkpt>
      <trkpt lat="44.46974" lon="1.01889">
        <ele>138.086548</ele>
        <time>2011-04-10T07:19:44Z</time>
      </trkpt>
      <trkpt lat="44.46971" lon="1.01906">
        <ele>137.605835</ele>
        <time>2011-04-10T07:19:56Z</time>
      </trkpt>
      <trkpt lat="44.46969" lon="1.01911">
        <ele>137.605835</ele>
        <time>2011-04-10T07:19:59Z</time>
      </trkpt>
      <trkpt lat="44.46963" lon="1.01931">
        <ele>139.528442</ele>
        <time>2011-04-10T07:20:11Z</time>
      </trkpt>
      <trkpt lat="44.46957" lon="1.0195">
        <ele>142.893066</ele>
        <time>2011-04-10T07:20:24Z</time>
      </trkpt>
      <trkpt lat="44.46955" lon="1.01958">
        <ele>144.335205</ele>
        <time>2011-04-10T07:20:29Z</time>
      </trkpt>
      <trkpt lat="44.46944" lon="1.01971">
        <ele>148.661011</ele>
        <time>2011-04-10T07:20:42Z</time>
      </trkpt>
      <trkpt lat="44.46934" lon="1.01963">
        <ele>149.622314</ele>
        <time>2011-04-10T07:20:50Z</time>
      </trkpt>
      <trkpt lat="44.46922" lon="1.01957">
        <ele>149.622314</ele>
        <time>2011-04-10T07:21:00Z</time>
      </trkpt>
      <trkpt lat="44.46912" lon="1.0196">
        <ele>151.544922</ele>
        <time>2011-04-10T07:21:07Z</time>
      </trkpt>
      <trkpt lat="44.46904" lon="1.01972">
        <ele>154.909546</ele>
        <time>2011-04-10T07:21:19Z</time>
      </trkpt>
      <trkpt lat="44.46902" lon="1.01978">
        <ele>155.870972</ele>
        <time>2011-04-10T07:21:24Z</time>
      </trkpt>
      <trkpt lat="44.46902" lon="1.01982">
        <ele>156.351563</ele>
        <time>2011-04-10T07:21:27Z</time>
      </trkpt>
      <trkpt lat="44.46901" lon="1.01991">
        <ele>156.832153</ele>
        <time>2011-04-10T07:21:33Z</time>
      </trkpt>
      <trkpt lat="44.46896" lon="1.02003">
        <ele>159.235474</ele>
        <time>2011-04-10T07:21:43Z</time>
      </trkpt>
      <trkpt lat="44.46894" lon="1.02013">
        <ele>159.235474</ele>
        <time>2011-04-10T07:21:49Z</time>
      </trkpt>
      <trkpt lat="44.46892" lon="1.0202">
        <ele>159.716187</ele>
        <time>2011-04-10T07:21:54Z</time>
      </trkpt>
      <trkpt lat="44.4689" lon="1.02029">
        <ele>160.196899</ele>
        <time>2011-04-10T07:22:01Z</time>
      </trkpt>
      <trkpt lat="44.46889" lon="1.02032">
        <ele>160.196899</ele>
        <time>2011-04-10T07:22:03Z</time>
      </trkpt>
      <trkpt lat="44.46882" lon="1.02048">
        <ele>163.080811</ele>
        <time>2011-04-10T07:22:16Z</time>
      </trkpt>
      <trkpt lat="44.4688" lon="1.02051">
        <ele>163.080811</ele>
        <time>2011-04-10T07:22:18Z</time>
      </trkpt>
      <trkpt lat="44.46875" lon="1.02064">
        <ele>165.003418</ele>
        <time>2011-04-10T07:22:27Z</time>
      </trkpt>
      <trkpt lat="44.46867" lon="1.02077">
        <ele>166.445313</ele>
        <time>2011-04-10T07:22:38Z</time>
      </trkpt>
      <trkpt lat="44.46861" lon="1.021">
        <ele>168.368042</ele>
        <time>2011-04-10T07:22:52Z</time>
      </trkpt>
      <trkpt lat="44.46857" lon="1.0211">
        <ele>169.329468</ele>
        <time>2011-04-10T07:22:58Z</time>
      </trkpt>
      <trkpt lat="44.46851" lon="1.02131">
        <ele>171.732666</ele>
        <time>2011-04-10T07:23:10Z</time>
      </trkpt>
      <trkpt lat="44.46848" lon="1.02148">
        <ele>172.69397</ele>
        <time>2011-04-10T07:23:20Z</time>
      </trkpt>
      <trkpt lat="44.46848" lon="1.02157">
        <ele>173.655273</ele>
        <time>2011-04-10T07:23:25Z</time>
      </trkpt>
      <trkpt lat="44.46847" lon="1.02177">
        <ele>175.577881</ele>
        <time>2011-04-10T07:23:37Z</time>
      </trkpt>
      <trkpt lat="44.46847" lon="1.02184">
        <ele>176.058594</ele>
        <time>2011-04-10T07:23:41Z</time>
      </trkpt>
      <trkpt lat="44.46847" lon="1.022">
        <ele>177.50061</ele>
        <time>2011-04-10T07:23:50Z</time>
      </trkpt>
      <trkpt lat="44.46847" lon="1.02204">
        <ele>178.461914</ele>
        <time>2011-04-10T07:23:52Z</time>
      </trkpt>
      <trkpt lat="44.46852" lon="1.02214">
        <ele>178.942627</ele>
        <time>2011-04-10T07:23:57Z</time>
      </trkpt>
      <trkpt lat="44.46849" lon="1.02239">
        <ele>182.307129</ele>
        <time>2011-04-10T07:24:06Z</time>
      </trkpt>
      <trkpt lat="44.46846" lon="1.02255">
        <ele>183.749023</ele>
        <time>2011-04-10T07:24:13Z</time>
      </trkpt>
      <trkpt lat="44.4684" lon="1.02286">
        <ele>185.671753</ele>
        <time>2011-04-10T07:24:28Z</time>
      </trkpt>
      <trkpt lat="44.46838" lon="1.02316">
        <ele>187.59436</ele>
        <time>2011-04-10T07:24:42Z</time>
      </trkpt>
      <trkpt lat="44.46838" lon="1.02318">
        <ele>187.59436</ele>
        <time>2011-04-10T07:24:43Z</time>
      </trkpt>
      <trkpt lat="44.46837" lon="1.02337">
        <ele>189.516968</ele>
        <time>2011-04-10T07:24:52Z</time>
      </trkpt>
      <trkpt lat="44.46836" lon="1.02341">
        <ele>189.997681</ele>
        <time>2011-04-10T07:24:54Z</time>
      </trkpt>
      <trkpt lat="44.46828" lon="1.02357">
        <ele>192.881714</ele>
        <time>2011-04-10T07:25:03Z</time>
      </trkpt>
      <trkpt lat="44.46819" lon="1.0238">
        <ele>195.765625</ele>
        <time>2011-04-10T07:25:15Z</time>
      </trkpt>
      <trkpt lat="44.46815" lon="1.02395">
        <ele>196.246338</ele>
        <time>2011-04-10T07:25:22Z</time>
      </trkpt>
      <trkpt lat="44.46807" lon="1.02422">
        <ele>198.168945</ele>
        <time>2011-04-10T07:25:37Z</time>
      </trkpt>
      <trkpt lat="44.46797" lon="1.02452">
        <ele>200.091675</ele>
        <time>2011-04-10T07:25:51Z</time>
      </trkpt>
      <trkpt lat="44.46795" lon="1.0246">
        <ele>200.091675</ele>
        <time>2011-04-10T07:25:54Z</time>
      </trkpt>
      <trkpt lat="44.46794" lon="1.02496">
        <ele>199.130127</ele>
        <time>2011-04-10T07:26:06Z</time>
      </trkpt>
      <trkpt lat="44.46782" lon="1.02537">
        <ele>199.130127</ele>
        <time>2011-04-10T07:26:19Z</time>
      </trkpt>
      <trkpt lat="44.46767" lon="1.02564">
        <ele>199.130127</ele>
        <time>2011-04-10T07:26:30Z</time>
      </trkpt>
      <trkpt lat="44.4675" lon="1.02596">
        <ele>200.091675</ele>
        <time>2011-04-10T07:26:42Z</time>
      </trkpt>
      <trkpt lat="44.46748" lon="1.02599">
        <ele>200.091675</ele>
        <time>2011-04-10T07:26:43Z</time>
      </trkpt>
      <trkpt lat="44.46725" lon="1.02606">
        <ele>201.052856</ele>
        <time>2011-04-10T07:26:54Z</time>
      </trkpt>
      <trkpt lat="44.46716" lon="1.02614">
        <ele>202.014282</ele>
        <time>2011-04-10T07:26:58Z</time>
      </trkpt>
      <trkpt lat="44.46686" lon="1.02671">
        <ele>203.456177</ele>
        <time>2011-04-10T07:27:13Z</time>
      </trkpt>
      <trkpt lat="44.46661" lon="1.02713">
        <ele>204.898071</ele>
        <time>2011-04-10T07:27:27Z</time>
      </trkpt>
      <trkpt lat="44.46641" lon="1.02755">
        <ele>204.898071</ele>
        <time>2011-04-10T07:27:41Z</time>
      </trkpt>
      <trkpt lat="44.46618" lon="1.02792">
        <ele>206.340088</ele>
        <time>2011-04-10T07:27:56Z</time>
      </trkpt>
      <trkpt lat="44.46593" lon="1.02827">
        <ele>210.185425</ele>
        <time>2011-04-10T07:28:12Z</time>
      </trkpt>
      <trkpt lat="44.46576" lon="1.02861">
        <ele>212.588623</ele>
        <time>2011-04-10T07:28:25Z</time>
      </trkpt>
      <trkpt lat="44.46556" lon="1.02898">
        <ele>214.991943</ele>
        <time>2011-04-10T07:28:41Z</time>
      </trkpt>
      <trkpt lat="44.46551" lon="1.02906">
        <ele>215.953247</ele>
        <time>2011-04-10T07:28:45Z</time>
      </trkpt>
      <trkpt lat="44.46542" lon="1.02919">
        <ele>217.395386</ele>
        <time>2011-04-10T07:28:51Z</time>
      </trkpt>
      <trkpt lat="44.46525" lon="1.02954">
        <ele>220.279175</ele>
        <time>2011-04-10T07:29:06Z</time>
      </trkpt>
      <trkpt lat="44.46514" lon="1.02984">
        <ele>222.201782</ele>
        <time>2011-04-10T07:29:18Z</time>
      </trkpt>
      <trkpt lat="44.46506" lon="1.03029">
        <ele>222.201782</ele>
        <time>2011-04-10T07:29:30Z</time>
      </trkpt>
      <trkpt lat="44.46505" lon="1.03041">
        <ele>221.721191</ele>
        <time>2011-04-10T07:29:32Z</time>
      </trkpt>
      <trkpt lat="44.46493" lon="1.03121">
        <ele>223.163208</ele>
        <time>2011-04-10T07:29:48Z</time>
      </trkpt>
      <trkpt lat="44.46488" lon="1.03184">
        <ele>223.643799</ele>
        <time>2011-04-10T07:30:02Z</time>
      </trkpt>
      <trkpt lat="44.46457" lon="1.03209">
        <ele>225.566528</ele>
        <time>2011-04-10T07:30:13Z</time>
      </trkpt>
      <trkpt lat="44.46445" lon="1.03221">
        <ele>226.047119</ele>
        <time>2011-04-10T07:30:18Z</time>
      </trkpt>
      <trkpt lat="44.46447" lon="1.03239">
        <ele>226.527832</ele>
        <time>2011-04-10T07:30:23Z</time>
      </trkpt>
      <trkpt lat="44.46443" lon="1.03265">
        <ele>226.527832</ele>
        <time>2011-04-10T07:30:29Z</time>
      </trkpt>
      <trkpt lat="44.46402" lon="1.03302">
        <ele>224.605225</ele>
        <time>2011-04-10T07:30:40Z</time>
      </trkpt>
      <trkpt lat="44.46325" lon="1.03314">
        <ele>221.721191</ele>
        <time>2011-04-10T07:30:52Z</time>
      </trkpt>
      <trkpt lat="44.46241" lon="1.03365">
        <ele>217.875977</ele>
        <time>2011-04-10T07:31:04Z</time>
      </trkpt>
      <trkpt lat="44.46211" lon="1.03373">
        <ele>216.914673</ele>
        <time>2011-04-10T07:31:08Z</time>
      </trkpt>
      <trkpt lat="44.46105" lon="1.03361">
        <ele>214.03064</ele>
        <time>2011-04-10T07:31:22Z</time>
      </trkpt>
      <trkpt lat="44.46057" lon="1.03351">
        <ele>214.03064</ele>
        <time>2011-04-10T07:31:32Z</time>
      </trkpt>
      <trkpt lat="44.46039" lon="1.03337">
        <ele>215.472656</ele>
        <time>2011-04-10T07:31:38Z</time>
      </trkpt>
      <trkpt lat="44.46026" lon="1.03355">
        <ele>217.395386</ele>
        <time>2011-04-10T07:31:44Z</time>
      </trkpt>
      <trkpt lat="44.46016" lon="1.03394">
        <ele>217.875977</ele>
        <time>2011-04-10T07:31:52Z</time>
      </trkpt>
      <trkpt lat="44.46012" lon="1.03426">
        <ele>217.875977</ele>
        <time>2011-04-10T07:31:57Z</time>
      </trkpt>
      <trkpt lat="44.46007" lon="1.03453">
        <ele>217.875977</ele>
        <time>2011-04-10T07:32:01Z</time>
      </trkpt>
      <trkpt lat="44.46005" lon="1.03467">
        <ele>217.875977</ele>
        <time>2011-04-10T07:32:03Z</time>
      </trkpt>
      <trkpt lat="44.45993" lon="1.03501">
        <ele>217.875977</ele>
        <time>2011-04-10T07:32:08Z</time>
      </trkpt>
      <trkpt lat="44.45987" lon="1.0353">
        <ele>217.875977</ele>
        <time>2011-04-10T07:32:12Z</time>
      </trkpt>
      <trkpt lat="44.45985" lon="1.03575">
        <ele>218.83728</ele>
        <time>2011-04-10T07:32:19Z</time>
      </trkpt>
      <trkpt lat="44.45983" lon="1.03606">
        <ele>219.317993</ele>
        <time>2011-04-10T07:32:24Z</time>
      </trkpt>
      <trkpt lat="44.45983" lon="1.03619">
        <ele>219.317993</ele>
        <time>2011-04-10T07:32:26Z</time>
      </trkpt>
      <trkpt lat="44.45986" lon="1.03659">
        <ele>218.83728</ele>
        <time>2011-04-10T07:32:33Z</time>
      </trkpt>
      <trkpt lat="44.45984" lon="1.03678">
        <ele>218.356567</ele>
        <time>2011-04-10T07:32:36Z</time>
      </trkpt>
      <trkpt lat="44.45977" lon="1.03721">
        <ele>217.395386</ele>
        <time>2011-04-10T07:32:42Z</time>
      </trkpt>
      <trkpt lat="44.45975" lon="1.03745">
        <ele>216.43396</ele>
        <time>2011-04-10T07:32:45Z</time>
      </trkpt>
      <trkpt lat="44.45985" lon="1.03815">
        <ele>213.550049</ele>
        <time>2011-04-10T07:32:53Z</time>
      </trkpt>
      <trkpt lat="44.45998" lon="1.03847">
        <ele>212.588623</ele>
        <time>2011-04-10T07:32:57Z</time>
      </trkpt>
      <trkpt lat="44.46026" lon="1.03872">
        <ele>211.627441</ele>
        <time>2011-04-10T07:33:03Z</time>
      </trkpt>
      <trkpt lat="44.46071" lon="1.03889">
        <ele>211.627441</ele>
        <time>2011-04-10T07:33:13Z</time>
      </trkpt>
      <trkpt lat="44.46097" lon="1.039">
        <ele>212.588623</ele>
        <time>2011-04-10T07:33:19Z</time>
      </trkpt>
      <trkpt lat="44.46129" lon="1.03912">
        <ele>213.069336</ele>
        <time>2011-04-10T07:33:26Z</time>
      </trkpt>
      <trkpt lat="44.46138" lon="1.03914">
        <ele>213.069336</ele>
        <time>2011-04-10T07:33:28Z</time>
      </trkpt>
      <trkpt lat="44.46167" lon="1.03922">
        <ele>213.550049</ele>
        <time>2011-04-10T07:33:34Z</time>
      </trkpt>
      <trkpt lat="44.46184" lon="1.03925">
        <ele>213.550049</ele>
        <time>2011-04-10T07:33:38Z</time>
      </trkpt>
      <trkpt lat="44.4624" lon="1.03954">
        <ele>214.51123</ele>
        <time>2011-04-10T07:33:53Z</time>
      </trkpt>
      <trkpt lat="44.46271" lon="1.03964">
        <ele>215.953247</ele>
        <time>2011-04-10T07:34:04Z</time>
      </trkpt>
      <trkpt lat="44.46311" lon="1.03974">
        <ele>220.279175</ele>
        <time>2011-04-10T07:34:19Z</time>
      </trkpt>
      <trkpt lat="44.46346" lon="1.03977">
        <ele>222.201782</ele>
        <time>2011-04-10T07:34:30Z</time>
      </trkpt>
      <trkpt lat="44.46357" lon="1.03979">
        <ele>222.201782</ele>
        <time>2011-04-10T07:34:33Z</time>
      </trkpt>
      <trkpt lat="44.4641" lon="1.03987">
        <ele>221.721191</ele>
        <time>2011-04-10T07:34:44Z</time>
      </trkpt>
      <trkpt lat="44.46469" lon="1.04002">
        <ele>222.682495</ele>
        <time>2011-04-10T07:34:56Z</time>
      </trkpt>
      <trkpt lat="44.4651" lon="1.04016">
        <ele>223.163208</ele>
        <time>2011-04-10T07:35:09Z</time>
      </trkpt>
      <trkpt lat="44.4652" lon="1.04024">
        <ele>223.163208</ele>
        <time>2011-04-10T07:35:14Z</time>
      </trkpt>
      <trkpt lat="44.46506" lon="1.04068">
        <ele>222.201782</ele>
        <time>2011-04-10T07:35:25Z</time>
      </trkpt>
      <trkpt lat="44.46502" lon="1.04076">
        <ele>221.721191</ele>
        <time>2011-04-10T07:35:27Z</time>
      </trkpt>
      <trkpt lat="44.46493" lon="1.04107">
        <ele>220.759888</ele>
        <time>2011-04-10T07:35:32Z</time>
      </trkpt>
      <trkpt lat="44.46481" lon="1.04162">
        <ele>219.317993</ele>
        <time>2011-04-10T07:35:40Z</time>
      </trkpt>
      <trkpt lat="44.46471" lon="1.04221">
        <ele>218.356567</ele>
        <time>2011-04-10T07:35:50Z</time>
      </trkpt>
      <trkpt lat="44.46481" lon="1.04229">
        <ele>220.759888</ele>
        <time>2011-04-10T07:35:57Z</time>
      </trkpt>
      <trkpt lat="44.46487" lon="1.0423">
        <ele>222.682495</ele>
        <time>2011-04-10T07:36:01Z</time>
      </trkpt>
      <trkpt lat="44.46508" lon="1.04234">
        <ele>225.085938</ele>
        <time>2011-04-10T07:36:13Z</time>
      </trkpt>
      <trkpt lat="44.46528" lon="1.04237">
        <ele>226.047119</ele>
        <time>2011-04-10T07:36:24Z</time>
      </trkpt>
      <trkpt lat="44.46552" lon="1.04238">
        <ele>227.489136</ele>
        <time>2011-04-10T07:36:37Z</time>
      </trkpt>
      <trkpt lat="44.46572" lon="1.04234">
        <ele>230.85376</ele>
        <time>2011-04-10T07:36:48Z</time>
      </trkpt>
      <trkpt lat="44.46598" lon="1.04217">
        <ele>233.737671</ele>
        <time>2011-04-10T07:37:03Z</time>
      </trkpt>
      <trkpt lat="44.46611" lon="1.04207">
        <ele>234.699097</ele>
        <time>2011-04-10T07:37:11Z</time>
      </trkpt>
      <trkpt lat="44.4664" lon="1.042">
        <ele>234.699097</ele>
        <time>2011-04-10T07:37:25Z</time>
      </trkpt>
      <trkpt lat="44.4668" lon="1.04196">
        <ele>236.140991</ele>
        <time>2011-04-10T07:37:37Z</time>
      </trkpt>
      <trkpt lat="44.46684" lon="1.04195">
        <ele>236.140991</ele>
        <time>2011-04-10T07:37:38Z</time>
      </trkpt>
      <trkpt lat="44.46736" lon="1.04199">
        <ele>235.660278</ele>
        <time>2011-04-10T07:37:49Z</time>
      </trkpt>
      <trkpt lat="44.4675" lon="1.04216">
        <ele>235.179688</ele>
        <time>2011-04-10T07:37:53Z</time>
      </trkpt>
      <trkpt lat="44.46759" lon="1.04248">
        <ele>234.699097</ele>
        <time>2011-04-10T07:37:58Z</time>
      </trkpt>
      <trkpt lat="44.46776" lon="1.0436">
        <ele>225.566528</ele>
        <time>2011-04-10T07:38:09Z</time>
      </trkpt>
      <trkpt lat="44.46793" lon="1.04483">
        <ele>219.798584</ele>
        <time>2011-04-10T07:38:20Z</time>
      </trkpt>
      <trkpt lat="44.468" lon="1.04509">
        <ele>219.317993</ele>
        <time>2011-04-10T07:38:25Z</time>
      </trkpt>
      <trkpt lat="44.46799" lon="1.04526">
        <ele>219.317993</ele>
        <time>2011-04-10T07:38:28Z</time>
      </trkpt>
      <trkpt lat="44.46771" lon="1.04598">
        <ele>218.83728</ele>
        <time>2011-04-10T07:38:40Z</time>
      </trkpt>
      <trkpt lat="44.46765" lon="1.04618">
        <ele>218.83728</ele>
        <time>2011-04-10T07:38:43Z</time>
      </trkpt>
      <trkpt lat="44.46756" lon="1.04644">
        <ele>219.317993</ele>
        <time>2011-04-10T07:38:47Z</time>
      </trkpt>
      <trkpt lat="44.46767" lon="1.0467">
        <ele>219.317993</ele>
        <time>2011-04-10T07:38:55Z</time>
      </trkpt>
      <trkpt lat="44.46793" lon="1.04681">
        <ele>221.721191</ele>
        <time>2011-04-10T07:39:09Z</time>
      </trkpt>
      <trkpt lat="44.46815" lon="1.04692">
        <ele>225.085938</ele>
        <time>2011-04-10T07:39:22Z</time>
      </trkpt>
      <trkpt lat="44.46838" lon="1.04706">
        <ele>226.527832</ele>
        <time>2011-04-10T07:39:34Z</time>
      </trkpt>
      <trkpt lat="44.4686" lon="1.04721">
        <ele>227.008545</ele>
        <time>2011-04-10T07:39:46Z</time>
      </trkpt>
      <trkpt lat="44.46879" lon="1.04762">
        <ele>228.450439</ele>
        <time>2011-04-10T07:40:00Z</time>
      </trkpt>
      <trkpt lat="44.46904" lon="1.04818">
        <ele>227.969727</ele>
        <time>2011-04-10T07:40:13Z</time>
      </trkpt>
      <trkpt lat="44.46928" lon="1.04865">
        <ele>229.411743</ele>
        <time>2011-04-10T07:40:25Z</time>
      </trkpt>
      <trkpt lat="44.46976" lon="1.04903">
        <ele>229.892334</ele>
        <time>2011-04-10T07:40:40Z</time>
      </trkpt>
      <trkpt lat="44.47026" lon="1.0494">
        <ele>231.814941</ele>
        <time>2011-04-10T07:40:55Z</time>
      </trkpt>
      <trkpt lat="44.47069" lon="1.04977">
        <ele>233.25708</ele>
        <time>2011-04-10T07:41:08Z</time>
      </trkpt>
      <trkpt lat="44.47087" lon="1.04992">
        <ele>233.25708</ele>
        <time>2011-04-10T07:41:13Z</time>
      </trkpt>
      <trkpt lat="44.47156" lon="1.05053">
        <ele>228.450439</ele>
        <time>2011-04-10T07:41:26Z</time>
      </trkpt>
      <trkpt lat="44.47182" lon="1.05076">
        <ele>227.008545</ele>
        <time>2011-04-10T07:41:31Z</time>
      </trkpt>
      <trkpt lat="44.47183" lon="1.05103">
        <ele>227.008545</ele>
        <time>2011-04-10T07:41:37Z</time>
      </trkpt>
      <trkpt lat="44.4718" lon="1.05107">
        <ele>227.489136</ele>
        <time>2011-04-10T07:41:38Z</time>
      </trkpt>
      <trkpt lat="44.47157" lon="1.05149">
        <ele>230.373047</ele>
        <time>2011-04-10T07:41:53Z</time>
      </trkpt>
      <trkpt lat="44.47132" lon="1.05187">
        <ele>232.295776</ele>
        <time>2011-04-10T07:42:09Z</time>
      </trkpt>
      <trkpt lat="44.47127" lon="1.05195">
        <ele>232.295776</ele>
        <time>2011-04-10T07:42:12Z</time>
      </trkpt>
      <trkpt lat="44.47106" lon="1.05226">
        <ele>232.776489</ele>
        <time>2011-04-10T07:42:26Z</time>
      </trkpt>
      <trkpt lat="44.47084" lon="1.05247">
        <ele>234.699097</ele>
        <time>2011-04-10T07:42:39Z</time>
      </trkpt>
      <trkpt lat="44.47056" lon="1.05288">
        <ele>236.621704</ele>
        <time>2011-04-10T07:42:56Z</time>
      </trkpt>
      <trkpt lat="44.47023" lon="1.05318">
        <ele>235.179688</ele>
        <time>2011-04-10T07:43:09Z</time>
      </trkpt>
      <trkpt lat="44.4701" lon="1.05339">
        <ele>234.699097</ele>
        <time>2011-04-10T07:43:14Z</time>
      </trkpt>
      <trkpt lat="44.46991" lon="1.05424">
        <ele>234.218384</ele>
        <time>2011-04-10T07:43:29Z</time>
      </trkpt>
      <trkpt lat="44.46982" lon="1.05439">
        <ele>234.699097</ele>
        <time>2011-04-10T07:43:34Z</time>
      </trkpt>
      <trkpt lat="44.46916" lon="1.05435">
        <ele>232.295776</ele>
        <time>2011-04-10T07:43:46Z</time>
      </trkpt>
      <trkpt lat="44.46834" lon="1.05432">
        <ele>231.334351</ele>
        <time>2011-04-10T07:43:59Z</time>
      </trkpt>
      <trkpt lat="44.46786" lon="1.05441">
        <ele>230.373047</ele>
        <time>2011-04-10T07:44:07Z</time>
      </trkpt>
      <trkpt lat="44.46726" lon="1.05429">
        <ele>227.969727</ele>
        <time>2011-04-10T07:44:16Z</time>
      </trkpt>
      <trkpt lat="44.46702" lon="1.05442">
        <ele>226.527832</ele>
        <time>2011-04-10T07:44:22Z</time>
      </trkpt>
      <trkpt lat="44.46693" lon="1.05459">
        <ele>226.047119</ele>
        <time>2011-04-10T07:44:25Z</time>
      </trkpt>
      <trkpt lat="44.4664" lon="1.0546">
        <ele>223.163208</ele>
        <time>2011-04-10T07:44:34Z</time>
      </trkpt>
      <trkpt lat="44.46562" lon="1.05449">
        <ele>218.83728</ele>
        <time>2011-04-10T07:44:45Z</time>
      </trkpt>
      <trkpt lat="44.46547" lon="1.05443">
        <ele>217.875977</ele>
        <time>2011-04-10T07:44:47Z</time>
      </trkpt>
      <trkpt lat="44.46528" lon="1.05424">
        <ele>216.914673</ele>
        <time>2011-04-10T07:44:51Z</time>
      </trkpt>
      <trkpt lat="44.46521" lon="1.05399">
        <ele>215.953247</ele>
        <time>2011-04-10T07:44:54Z</time>
      </trkpt>
      <trkpt lat="44.46513" lon="1.05383">
        <ele>214.991943</ele>
        <time>2011-04-10T07:44:56Z</time>
      </trkpt>
      <trkpt lat="44.46501" lon="1.0536">
        <ele>214.03064</ele>
        <time>2011-04-10T07:44:59Z</time>
      </trkpt>
      <trkpt lat="44.46493" lon="1.05313">
        <ele>211.146729</ele>
        <time>2011-04-10T07:45:04Z</time>
      </trkpt>
      <trkpt lat="44.46495" lon="1.05293">
        <ele>210.185425</ele>
        <time>2011-04-10T07:45:06Z</time>
      </trkpt>
      <trkpt lat="44.46479" lon="1.0524">
        <ele>206.820679</ele>
        <time>2011-04-10T07:45:12Z</time>
      </trkpt>
      <trkpt lat="44.46451" lon="1.0517">
        <ele>202.014282</ele>
        <time>2011-04-10T07:45:23Z</time>
      </trkpt>
      <trkpt lat="44.46449" lon="1.05166">
        <ele>201.533569</ele>
        <time>2011-04-10T07:45:24Z</time>
      </trkpt>
      <trkpt lat="44.46439" lon="1.05137">
        <ele>199.61084</ele>
        <time>2011-04-10T07:45:29Z</time>
      </trkpt>
      <trkpt lat="44.46415" lon="1.05104">
        <ele>199.130127</ele>
        <time>2011-04-10T07:45:37Z</time>
      </trkpt>
      <trkpt lat="44.46411" lon="1.05106">
        <ele>199.61084</ele>
        <time>2011-04-10T07:45:38Z</time>
      </trkpt>
      <trkpt lat="44.46387" lon="1.05124">
        <ele>200.091675</ele>
        <time>2011-04-10T07:45:45Z</time>
      </trkpt>
      <trkpt lat="44.46334" lon="1.05166">
        <ele>204.41748</ele>
        <time>2011-04-10T07:46:01Z</time>
      </trkpt>
      <trkpt lat="44.46331" lon="1.05168">
        <ele>204.41748</ele>
        <time>2011-04-10T07:46:02Z</time>
      </trkpt>
      <trkpt lat="44.46323" lon="1.05154">
        <ele>203.456177</ele>
        <time>2011-04-10T07:46:07Z</time>
      </trkpt>
      <trkpt lat="44.46327" lon="1.05049">
        <ele>199.61084</ele>
        <time>2011-04-10T07:46:20Z</time>
      </trkpt>
      <trkpt lat="44.46337" lon="1.05004">
        <ele>198.168945</ele>
        <time>2011-04-10T07:46:25Z</time>
      </trkpt>
      <trkpt lat="44.46337" lon="1.04973">
        <ele>197.688232</ele>
        <time>2011-04-10T07:46:29Z</time>
      </trkpt>
      <trkpt lat="44.46332" lon="1.0496">
        <ele>197.20752</ele>
        <time>2011-04-10T07:46:31Z</time>
      </trkpt>
      <trkpt lat="44.46309" lon="1.04902">
        <ele>197.20752</ele>
        <time>2011-04-10T07:46:41Z</time>
      </trkpt>
      <trkpt lat="44.463" lon="1.04864">
        <ele>199.61084</ele>
        <time>2011-04-10T07:46:49Z</time>
      </trkpt>
      <trkpt lat="44.46316" lon="1.04828">
        <ele>202.014282</ele>
        <time>2011-04-10T07:47:00Z</time>
      </trkpt>
      <trkpt lat="44.46332" lon="1.04783">
        <ele>204.41748</ele>
        <time>2011-04-10T07:47:12Z</time>
      </trkpt>
      <trkpt lat="44.46361" lon="1.04744">
        <ele>203.456177</ele>
        <time>2011-04-10T07:47:24Z</time>
      </trkpt>
      <trkpt lat="44.46387" lon="1.04712">
        <ele>203.456177</ele>
        <time>2011-04-10T07:47:35Z</time>
      </trkpt>
      <trkpt lat="44.46417" lon="1.04675">
        <ele>207.782104</ele>
        <time>2011-04-10T07:47:48Z</time>
      </trkpt>
      <trkpt lat="44.46446" lon="1.0463">
        <ele>211.146729</ele>
        <time>2011-04-10T07:48:01Z</time>
      </trkpt>
      <trkpt lat="44.46438" lon="1.04639">
        <ele>211.146729</ele>
        <time>2011-04-10T07:48:07Z</time>
      </trkpt>
      <trkpt lat="44.46436" lon="1.04644">
        <ele>211.146729</ele>
        <time>2011-04-10T07:48:08Z</time>
      </trkpt>
      <trkpt lat="44.46415" lon="1.04678">
        <ele>209.704834</ele>
        <time>2011-04-10T07:48:15Z</time>
      </trkpt>
      <trkpt lat="44.46397" lon="1.04702">
        <ele>209.224121</ele>
        <time>2011-04-10T07:48:20Z</time>
      </trkpt>
      <trkpt lat="44.46375" lon="1.04723">
        <ele>207.782104</ele>
        <time>2011-04-10T07:48:25Z</time>
      </trkpt>
      <trkpt lat="44.46356" lon="1.04749">
        <ele>207.782104</ele>
        <time>2011-04-10T07:48:30Z</time>
      </trkpt>
      <trkpt lat="44.46336" lon="1.04775">
        <ele>207.301392</ele>
        <time>2011-04-10T07:48:35Z</time>
      </trkpt>
      <trkpt lat="44.46319" lon="1.04816">
        <ele>206.820679</ele>
        <time>2011-04-10T07:48:41Z</time>
      </trkpt>
      <trkpt lat="44.46306" lon="1.04843">
        <ele>206.340088</ele>
        <time>2011-04-10T07:48:45Z</time>
      </trkpt>
      <trkpt lat="44.46303" lon="1.04891">
        <ele>204.898071</ele>
        <time>2011-04-10T07:48:51Z</time>
      </trkpt>
      <trkpt lat="44.46334" lon="1.0497">
        <ele>203.93689</ele>
        <time>2011-04-10T07:49:01Z</time>
      </trkpt>
      <trkpt lat="44.46336" lon="1.05004">
        <ele>203.93689</ele>
        <time>2011-04-10T07:49:05Z</time>
      </trkpt>
      <trkpt lat="44.46332" lon="1.0502">
        <ele>203.93689</ele>
        <time>2011-04-10T07:49:07Z</time>
      </trkpt>
      <trkpt lat="44.46316" lon="1.05045">
        <ele>202.975464</ele>
        <time>2011-04-10T07:49:12Z</time>
      </trkpt>
      <trkpt lat="44.46253" lon="1.05051">
        <ele>200.572266</ele>
        <time>2011-04-10T07:49:24Z</time>
      </trkpt>
      <trkpt lat="44.46238" lon="1.0505">
        <ele>200.091675</ele>
        <time>2011-04-10T07:49:27Z</time>
      </trkpt>
      <trkpt lat="44.46198" lon="1.05071">
        <ele>201.533569</ele>
        <time>2011-04-10T07:49:39Z</time>
      </trkpt>
      <trkpt lat="44.46164" lon="1.05094">
        <ele>203.456177</ele>
        <time>2011-04-10T07:49:49Z</time>
      </trkpt>
      <trkpt lat="44.46134" lon="1.05102">
        <ele>202.975464</ele>
        <time>2011-04-10T07:49:59Z</time>
      </trkpt>
      <trkpt lat="44.46108" lon="1.05114">
        <ele>202.014282</ele>
        <time>2011-04-10T07:50:10Z</time>
      </trkpt>
      <trkpt lat="44.4608" lon="1.05127">
        <ele>203.93689</ele>
        <time>2011-04-10T07:50:23Z</time>
      </trkpt>
      <trkpt lat="44.46058" lon="1.05137">
        <ele>205.378784</ele>
        <time>2011-04-10T07:50:34Z</time>
      </trkpt>
      <trkpt lat="44.46055" lon="1.0514">
        <ele>205.859497</ele>
        <time>2011-04-10T07:50:36Z</time>
      </trkpt>
      <trkpt lat="44.4605" lon="1.0516">
        <ele>207.782104</ele>
        <time>2011-04-10T07:50:43Z</time>
      </trkpt>
      <trkpt lat="44.46037" lon="1.05197">
        <ele>210.185425</ele>
        <time>2011-04-10T07:50:56Z</time>
      </trkpt>
      <trkpt lat="44.46026" lon="1.05209">
        <ele>211.627441</ele>
        <time>2011-04-10T07:51:02Z</time>
      </trkpt>
      <trkpt lat="44.45995" lon="1.0522">
        <ele>214.03064</ele>
        <time>2011-04-10T07:51:16Z</time>
      </trkpt>
      <trkpt lat="44.45973" lon="1.05228">
        <ele>214.51123</ele>
        <time>2011-04-10T07:51:28Z</time>
      </trkpt>
      <trkpt lat="44.45969" lon="1.05229">
        <ele>214.03064</ele>
        <time>2011-04-10T07:51:30Z</time>
      </trkpt>
      <trkpt lat="44.45957" lon="1.05231">
        <ele>213.069336</ele>
        <time>2011-04-10T07:51:37Z</time>
      </trkpt>
      <trkpt lat="44.45933" lon="1.0524">
        <ele>212.108032</ele>
        <time>2011-04-10T07:51:49Z</time>
      </trkpt>
      <trkpt lat="44.45927" lon="1.05253">
        <ele>212.108032</ele>
        <time>2011-04-10T07:51:54Z</time>
      </trkpt>
      <trkpt lat="44.45907" lon="1.0529">
        <ele>212.588623</ele>
        <time>2011-04-10T07:52:06Z</time>
      </trkpt>
      <trkpt lat="44.45879" lon="1.0533">
        <ele>211.627441</ele>
        <time>2011-04-10T07:52:17Z</time>
      </trkpt>
      <trkpt lat="44.45858" lon="1.05356">
        <ele>211.627441</ele>
        <time>2011-04-10T07:52:28Z</time>
      </trkpt>
      <trkpt lat="44.45831" lon="1.05385">
        <ele>213.069336</ele>
        <time>2011-04-10T07:52:41Z</time>
      </trkpt>
      <trkpt lat="44.45811" lon="1.05406">
        <ele>214.03064</ele>
        <time>2011-04-10T07:52:50Z</time>
      </trkpt>
      <trkpt lat="44.45786" lon="1.0543">
        <ele>214.51123</ele>
        <time>2011-04-10T07:53:00Z</time>
      </trkpt>
      <trkpt lat="44.45756" lon="1.05432">
        <ele>213.550049</ele>
        <time>2011-04-10T07:53:08Z</time>
      </trkpt>
      <trkpt lat="44.45698" lon="1.05419">
        <ele>209.704834</ele>
        <time>2011-04-10T07:53:18Z</time>
      </trkpt>
      <trkpt lat="44.45656" lon="1.05421">
        <ele>206.820679</ele>
        <time>2011-04-10T07:53:25Z</time>
      </trkpt>
      <trkpt lat="44.45617" lon="1.05443">
        <ele>207.301392</ele>
        <time>2011-04-10T07:53:36Z</time>
      </trkpt>
      <trkpt lat="44.45593" lon="1.05463">
        <ele>209.224121</ele>
        <time>2011-04-10T07:53:48Z</time>
      </trkpt>
      <trkpt lat="44.4559" lon="1.05467">
        <ele>209.704834</ele>
        <time>2011-04-10T07:53:50Z</time>
      </trkpt>
      <trkpt lat="44.45585" lon="1.05475">
        <ele>210.666016</ele>
        <time>2011-04-10T07:53:54Z</time>
      </trkpt>
      <trkpt lat="44.45566" lon="1.05503">
        <ele>211.627441</ele>
        <time>2011-04-10T07:54:07Z</time>
      </trkpt>
      <trkpt lat="44.45562" lon="1.05509">
        <ele>211.627441</ele>
        <time>2011-04-10T07:54:10Z</time>
      </trkpt>
      <trkpt lat="44.45545" lon="1.05532">
        <ele>212.108032</ele>
        <time>2011-04-10T07:54:22Z</time>
      </trkpt>
      <trkpt lat="44.45523" lon="1.05553">
        <ele>214.03064</ele>
        <time>2011-04-10T07:54:35Z</time>
      </trkpt>
      <trkpt lat="44.45503" lon="1.05575">
        <ele>215.472656</ele>
        <time>2011-04-10T07:54:47Z</time>
      </trkpt>
      <trkpt lat="44.45498" lon="1.0558">
        <ele>215.472656</ele>
        <time>2011-04-10T07:54:50Z</time>
      </trkpt>
      <trkpt lat="44.4549" lon="1.05588">
        <ele>214.991943</ele>
        <time>2011-04-10T07:54:55Z</time>
      </trkpt>
      <trkpt lat="44.45466" lon="1.05612">
        <ele>215.953247</ele>
        <time>2011-04-10T07:55:10Z</time>
      </trkpt>
      <trkpt lat="44.45443" lon="1.05631">
        <ele>216.43396</ele>
        <time>2011-04-10T07:55:23Z</time>
      </trkpt>
      <trkpt lat="44.45418" lon="1.05666">
        <ele>217.395386</ele>
        <time>2011-04-10T07:55:36Z</time>
      </trkpt>
      <trkpt lat="44.45401" lon="1.05701">
        <ele>216.914673</ele>
        <time>2011-04-10T07:55:42Z</time>
      </trkpt>
      <trkpt lat="44.45389" lon="1.05792">
        <ele>211.146729</ele>
        <time>2011-04-10T07:55:50Z</time>
      </trkpt>
      <trkpt lat="44.45387" lon="1.05814">
        <ele>210.185425</ele>
        <time>2011-04-10T07:55:52Z</time>
      </trkpt>
      <trkpt lat="44.45376" lon="1.05841">
        <ele>207.782104</ele>
        <time>2011-04-10T07:55:56Z</time>
      </trkpt>
      <trkpt lat="44.45351" lon="1.05889">
        <ele>205.378784</ele>
        <time>2011-04-10T07:56:05Z</time>
      </trkpt>
      <trkpt lat="44.45322" lon="1.05936">
        <ele>202.975464</ele>
        <time>2011-04-10T07:56:17Z</time>
      </trkpt>
      <trkpt lat="44.45315" lon="1.05947">
        <ele>202.975464</ele>
        <time>2011-04-10T07:56:20Z</time>
      </trkpt>
      <trkpt lat="44.45306" lon="1.05982">
        <ele>202.494873</ele>
        <time>2011-04-10T07:56:27Z</time>
      </trkpt>
      <trkpt lat="44.45305" lon="1.05993">
        <ele>202.014282</ele>
        <time>2011-04-10T07:56:29Z</time>
      </trkpt>
      <trkpt lat="44.45306" lon="1.06026">
        <ele>200.572266</ele>
        <time>2011-04-10T07:56:35Z</time>
      </trkpt>
      <trkpt lat="44.4531" lon="1.06068">
        <ele>199.130127</ele>
        <time>2011-04-10T07:56:43Z</time>
      </trkpt>
      <trkpt lat="44.45321" lon="1.06113">
        <ele>197.20752</ele>
        <time>2011-04-10T07:56:49Z</time>
      </trkpt>
      <trkpt lat="44.45316" lon="1.06155">
        <ele>194.804321</ele>
        <time>2011-04-10T07:56:54Z</time>
      </trkpt>
      <trkpt lat="44.45289" lon="1.06176">
        <ele>191.920288</ele>
        <time>2011-04-10T07:57:01Z</time>
      </trkpt>
      <trkpt lat="44.45277" lon="1.06184">
        <ele>192.401123</ele>
        <time>2011-04-10T07:57:08Z</time>
      </trkpt>
      <trkpt lat="44.45258" lon="1.06197">
        <ele>195.284912</ele>
        <time>2011-04-10T07:57:17Z</time>
      </trkpt>
      <trkpt lat="44.45232" lon="1.06212">
        <ele>197.688232</ele>
        <time>2011-04-10T07:57:29Z</time>
      </trkpt>
      <trkpt lat="44.45224" lon="1.06219">
        <ele>198.168945</ele>
        <time>2011-04-10T07:57:33Z</time>
      </trkpt>
      <trkpt lat="44.45205" lon="1.06237">
        <ele>198.168945</ele>
        <time>2011-04-10T07:57:44Z</time>
      </trkpt>
      <trkpt lat="44.45198" lon="1.06243">
        <ele>198.649536</ele>
        <time>2011-04-10T07:57:48Z</time>
      </trkpt>
      <trkpt lat="44.45192" lon="1.06251">
        <ele>199.61084</ele>
        <time>2011-04-10T07:57:54Z</time>
      </trkpt>
      <trkpt lat="44.45179" lon="1.06268">
        <ele>202.014282</ele>
        <time>2011-04-10T07:58:05Z</time>
      </trkpt>
      <trkpt lat="44.45169" lon="1.06281">
        <ele>203.456177</ele>
        <time>2011-04-10T07:58:12Z</time>
      </trkpt>
      <trkpt lat="44.45155" lon="1.06299">
        <ele>202.014282</ele>
        <time>2011-04-10T07:58:22Z</time>
      </trkpt>
      <trkpt lat="44.45143" lon="1.06314">
        <ele>201.533569</ele>
        <time>2011-04-10T07:58:30Z</time>
      </trkpt>
      <trkpt lat="44.4512" lon="1.06349">
        <ele>202.975464</ele>
        <time>2011-04-10T07:58:43Z</time>
      </trkpt>
      <trkpt lat="44.45114" lon="1.06357">
        <ele>202.975464</ele>
        <time>2011-04-10T07:58:46Z</time>
      </trkpt>
      <trkpt lat="44.45105" lon="1.0637">
        <ele>203.93689</ele>
        <time>2011-04-10T07:58:51Z</time>
      </trkpt>
      <trkpt lat="44.45085" lon="1.06407">
        <ele>208.743408</ele>
        <time>2011-04-10T07:59:03Z</time>
      </trkpt>
      <trkpt lat="44.45068" lon="1.06436">
        <ele>212.108032</ele>
        <time>2011-04-10T07:59:13Z</time>
      </trkpt>
      <trkpt lat="44.45055" lon="1.06464">
        <ele>214.51123</ele>
        <time>2011-04-10T07:59:21Z</time>
      </trkpt>
      <trkpt lat="44.45028" lon="1.06505">
        <ele>214.51123</ele>
        <time>2011-04-10T07:59:34Z</time>
      </trkpt>
      <trkpt lat="44.45012" lon="1.06528">
        <ele>215.472656</ele>
        <time>2011-04-10T07:59:41Z</time>
      </trkpt>
      <trkpt lat="44.44977" lon="1.06572">
        <ele>214.991943</ele>
        <time>2011-04-10T07:59:55Z</time>
      </trkpt>
      <trkpt lat="44.44954" lon="1.06617">
        <ele>214.991943</ele>
        <time>2011-04-10T08:00:06Z</time>
      </trkpt>
      <trkpt lat="44.44936" lon="1.06671">
        <ele>214.51123</ele>
        <time>2011-04-10T08:00:18Z</time>
      </trkpt>
      <trkpt lat="44.44914" lon="1.06694">
        <ele>212.588623</ele>
        <time>2011-04-10T08:00:28Z</time>
      </trkpt>
      <trkpt lat="44.44908" lon="1.06699">
        <ele>212.108032</ele>
        <time>2011-04-10T08:00:32Z</time>
      </trkpt>
      <trkpt lat="44.44905" lon="1.067">
        <ele>212.108032</ele>
        <time>2011-04-10T08:00:34Z</time>
      </trkpt>
      <trkpt lat="44.44888" lon="1.06713">
        <ele>214.51123</ele>
        <time>2011-04-10T08:00:50Z</time>
      </trkpt>
      <trkpt lat="44.44886" lon="1.06715">
        <ele>214.991943</ele>
        <time>2011-04-10T08:00:52Z</time>
      </trkpt>
      <trkpt lat="44.44883" lon="1.06717">
        <ele>215.953247</ele>
        <time>2011-04-10T08:00:55Z</time>
      </trkpt>
      <trkpt lat="44.44878" lon="1.06722">
        <ele>216.914673</ele>
        <time>2011-04-10T08:01:00Z</time>
      </trkpt>
      <trkpt lat="44.44871" lon="1.06728">
        <ele>217.875977</ele>
        <time>2011-04-10T08:01:06Z</time>
      </trkpt>
      <trkpt lat="44.44866" lon="1.06733">
        <ele>218.83728</ele>
        <time>2011-04-10T08:01:11Z</time>
      </trkpt>
      <trkpt lat="44.44861" lon="1.06735">
        <ele>219.798584</ele>
        <time>2011-04-10T08:01:16Z</time>
      </trkpt>
      <trkpt lat="44.44853" lon="1.06739">
        <ele>220.279175</ele>
        <time>2011-04-10T08:01:22Z</time>
      </trkpt>
      <trkpt lat="44.44846" lon="1.06741">
        <ele>220.279175</ele>
        <time>2011-04-10T08:01:27Z</time>
      </trkpt>
      <trkpt lat="44.44823" lon="1.06748">
        <ele>219.798584</ele>
        <time>2011-04-10T08:01:38Z</time>
      </trkpt>
      <trkpt lat="44.44794" lon="1.06766">
        <ele>219.317993</ele>
        <time>2011-04-10T08:01:49Z</time>
      </trkpt>
      <trkpt lat="44.44767" lon="1.06792">
        <ele>217.875977</ele>
        <time>2011-04-10T08:01:59Z</time>
      </trkpt>
      <trkpt lat="44.44762" lon="1.06797">
        <ele>217.395386</ele>
        <time>2011-04-10T08:02:01Z</time>
      </trkpt>
      <trkpt lat="44.44738" lon="1.06842">
        <ele>219.798584</ele>
        <time>2011-04-10T08:02:14Z</time>
      </trkpt>
      <trkpt lat="44.44708" lon="1.06881">
        <ele>222.201782</ele>
        <time>2011-04-10T08:02:26Z</time>
      </trkpt>
      <trkpt lat="44.44699" lon="1.0689">
        <ele>221.721191</ele>
        <time>2011-04-10T08:02:29Z</time>
      </trkpt>
      <trkpt lat="44.44673" lon="1.0692">
        <ele>221.240601</ele>
        <time>2011-04-10T08:02:37Z</time>
      </trkpt>
      <trkpt lat="44.44671" lon="1.06928">
        <ele>221.240601</ele>
        <time>2011-04-10T08:02:48Z</time>
      </trkpt>
      <trkpt lat="44.44671" lon="1.06933">
        <ele>225.085938</ele>
        <time>2011-04-10T08:08:05Z</time>
      </trkpt>
      <trkpt lat="44.44662" lon="1.06931">
        <ele>224.605225</ele>
        <time>2011-04-10T08:08:11Z</time>
      </trkpt>
      <trkpt lat="44.4462" lon="1.0694">
        <ele>225.566528</ele>
        <time>2011-04-10T08:08:23Z</time>
      </trkpt>
      <trkpt lat="44.44559" lon="1.06952">
        <ele>225.566528</ele>
        <time>2011-04-10T08:08:39Z</time>
      </trkpt>
      <trkpt lat="44.44524" lon="1.06967">
        <ele>225.566528</ele>
        <time>2011-04-10T08:08:49Z</time>
      </trkpt>
      <trkpt lat="44.44513" lon="1.06972">
        <ele>225.566528</ele>
        <time>2011-04-10T08:08:52Z</time>
      </trkpt>
      <trkpt lat="44.44454" lon="1.06994">
        <ele>225.566528</ele>
        <time>2011-04-10T08:09:06Z</time>
      </trkpt>
      <trkpt lat="44.4445" lon="1.06995">
        <ele>225.566528</ele>
        <time>2011-04-10T08:09:07Z</time>
      </trkpt>
      <trkpt lat="44.444" lon="1.07008">
        <ele>227.969727</ele>
        <time>2011-04-10T08:09:20Z</time>
      </trkpt>
      <trkpt lat="44.44353" lon="1.07008">
        <ele>230.85376</ele>
        <time>2011-04-10T08:09:34Z</time>
      </trkpt>
      <trkpt lat="44.44319" lon="1.07">
        <ele>233.737671</ele>
        <time>2011-04-10T08:09:47Z</time>
      </trkpt>
      <trkpt lat="44.4429" lon="1.06993">
        <ele>235.179688</ele>
        <time>2011-04-10T08:09:59Z</time>
      </trkpt>
      <trkpt lat="44.44267" lon="1.0699">
        <ele>237.102295</ele>
        <time>2011-04-10T08:10:09Z</time>
      </trkpt>
      <trkpt lat="44.44239" lon="1.06989">
        <ele>237.582886</ele>
        <time>2011-04-10T08:10:22Z</time>
      </trkpt>
      <trkpt lat="44.44215" lon="1.06995">
        <ele>239.024902</ele>
        <time>2011-04-10T08:10:34Z</time>
      </trkpt>
      <trkpt lat="44.44189" lon="1.07002">
        <ele>238.544312</ele>
        <time>2011-04-10T08:10:45Z</time>
      </trkpt>
      <trkpt lat="44.44153" lon="1.0701">
        <ele>239.986206</ele>
        <time>2011-04-10T08:10:58Z</time>
      </trkpt>
      <trkpt lat="44.44112" lon="1.07019">
        <ele>241.428223</ele>
        <time>2011-04-10T08:11:12Z</time>
      </trkpt>
      <trkpt lat="44.44075" lon="1.0703">
        <ele>241.908936</ele>
        <time>2011-04-10T08:11:24Z</time>
      </trkpt>
      <trkpt lat="44.44039" lon="1.07042">
        <ele>243.831543</ele>
        <time>2011-04-10T08:11:38Z</time>
      </trkpt>
      <trkpt lat="44.44011" lon="1.07054">
        <ele>245.273438</ele>
        <time>2011-04-10T08:11:51Z</time>
      </trkpt>
      <trkpt lat="44.43974" lon="1.07053">
        <ele>246.234863</ele>
        <time>2011-04-10T08:12:05Z</time>
      </trkpt>
      <trkpt lat="44.43935" lon="1.0705">
        <ele>246.234863</ele>
        <time>2011-04-10T08:12:20Z</time>
      </trkpt>
      <trkpt lat="44.43899" lon="1.07046">
        <ele>247.196045</ele>
        <time>2011-04-10T08:12:36Z</time>
      </trkpt>
      <trkpt lat="44.43855" lon="1.07066">
        <ele>247.196045</ele>
        <time>2011-04-10T08:12:49Z</time>
      </trkpt>
      <trkpt lat="44.43839" lon="1.07085">
        <ele>247.196045</ele>
        <time>2011-04-10T08:12:54Z</time>
      </trkpt>
      <trkpt lat="44.43794" lon="1.07157">
        <ele>248.638184</ele>
        <time>2011-04-10T08:13:11Z</time>
      </trkpt>
      <trkpt lat="44.43778" lon="1.07192">
        <ele>250.560791</ele>
        <time>2011-04-10T08:13:21Z</time>
      </trkpt>
      <trkpt lat="44.43775" lon="1.072">
        <ele>251.041382</ele>
        <time>2011-04-10T08:13:23Z</time>
      </trkpt>
      <trkpt lat="44.43764" lon="1.07209">
        <ele>251.522095</ele>
        <time>2011-04-10T08:13:28Z</time>
      </trkpt>
      <trkpt lat="44.4374" lon="1.07207">
        <ele>253.925415</ele>
        <time>2011-04-10T08:13:41Z</time>
      </trkpt>
      <trkpt lat="44.43713" lon="1.07204">
        <ele>254.886597</ele>
        <time>2011-04-10T08:13:54Z</time>
      </trkpt>
      <trkpt lat="44.43677" lon="1.07198">
        <ele>254.886597</ele>
        <time>2011-04-10T08:14:06Z</time>
      </trkpt>
      <trkpt lat="44.43672" lon="1.07193">
        <ele>254.886597</ele>
        <time>2011-04-10T08:14:08Z</time>
      </trkpt>
      <trkpt lat="44.43673" lon="1.07199">
        <ele>255.36731</ele>
        <time>2011-04-10T08:14:14Z</time>
      </trkpt>
      <trkpt lat="44.43679" lon="1.072">
        <ele>255.848022</ele>
        <time>2011-04-10T08:14:17Z</time>
      </trkpt>
      <trkpt lat="44.43672" lon="1.07211">
        <ele>256.809326</ele>
        <time>2011-04-10T08:14:24Z</time>
      </trkpt>
      <trkpt lat="44.43666" lon="1.07216">
        <ele>256.809326</ele>
        <time>2011-04-10T08:14:27Z</time>
      </trkpt>
      <trkpt lat="44.43645" lon="1.07246">
        <ele>257.770752</ele>
        <time>2011-04-10T08:14:41Z</time>
      </trkpt>
      <trkpt lat="44.43627" lon="1.07284">
        <ele>259.693359</ele>
        <time>2011-04-10T08:14:55Z</time>
      </trkpt>
      <trkpt lat="44.43608" lon="1.0732">
        <ele>262.577148</ele>
        <time>2011-04-10T08:15:09Z</time>
      </trkpt>
      <trkpt lat="44.4359" lon="1.07354">
        <ele>263.057861</ele>
        <time>2011-04-10T08:15:22Z</time>
      </trkpt>
      <trkpt lat="44.43571" lon="1.07396">
        <ele>263.538574</ele>
        <time>2011-04-10T08:15:38Z</time>
      </trkpt>
      <trkpt lat="44.43551" lon="1.07436">
        <ele>264.499878</ele>
        <time>2011-04-10T08:15:54Z</time>
      </trkpt>
      <trkpt lat="44.43532" lon="1.07472">
        <ele>264.980591</ele>
        <time>2011-04-10T08:16:08Z</time>
      </trkpt>
      <trkpt lat="44.43507" lon="1.07515">
        <ele>264.980591</ele>
        <time>2011-04-10T08:16:22Z</time>
      </trkpt>
      <trkpt lat="44.43505" lon="1.0752">
        <ele>264.980591</ele>
        <time>2011-04-10T08:16:23Z</time>
      </trkpt>
      <trkpt lat="44.43491" lon="1.07546">
        <ele>264.019287</ele>
        <time>2011-04-10T08:16:28Z</time>
      </trkpt>
      <trkpt lat="44.43469" lon="1.0757">
        <ele>263.057861</ele>
        <time>2011-04-10T08:16:33Z</time>
      </trkpt>
      <trkpt lat="44.43447" lon="1.07603">
        <ele>262.577148</ele>
        <time>2011-04-10T08:16:38Z</time>
      </trkpt>
      <trkpt lat="44.4342" lon="1.07647">
        <ele>260.17395</ele>
        <time>2011-04-10T08:16:44Z</time>
      </trkpt>
      <trkpt lat="44.4341" lon="1.07687">
        <ele>257.770752</ele>
        <time>2011-04-10T08:16:49Z</time>
      </trkpt>
      <trkpt lat="44.434" lon="1.07731">
        <ele>254.886597</ele>
        <time>2011-04-10T08:16:54Z</time>
      </trkpt>
      <trkpt lat="44.43369" lon="1.0778">
        <ele>252.002808</ele>
        <time>2011-04-10T08:17:02Z</time>
      </trkpt>
      <trkpt lat="44.43356" lon="1.0783">
        <ele>251.522095</ele>
        <time>2011-04-10T08:17:12Z</time>
      </trkpt>
      <trkpt lat="44.43352" lon="1.07879">
        <ele>252.963989</ele>
        <time>2011-04-10T08:17:22Z</time>
      </trkpt>
      <trkpt lat="44.43345" lon="1.0792">
        <ele>253.925415</ele>
        <time>2011-04-10T08:17:32Z</time>
      </trkpt>
      <trkpt lat="44.43334" lon="1.0796">
        <ele>254.406006</ele>
        <time>2011-04-10T08:17:43Z</time>
      </trkpt>
      <trkpt lat="44.43331" lon="1.07973">
        <ele>254.406006</ele>
        <time>2011-04-10T08:17:47Z</time>
      </trkpt>
      <trkpt lat="44.43316" lon="1.08019">
        <ele>252.963989</ele>
        <time>2011-04-10T08:18:00Z</time>
      </trkpt>
      <trkpt lat="44.43308" lon="1.08036">
        <ele>253.444702</ele>
        <time>2011-04-10T08:18:04Z</time>
      </trkpt>
      <trkpt lat="44.43295" lon="1.08053">
        <ele>252.483398</ele>
        <time>2011-04-10T08:18:09Z</time>
      </trkpt>
      <trkpt lat="44.43276" lon="1.08033">
        <ele>252.002808</ele>
        <time>2011-04-10T08:18:19Z</time>
      </trkpt>
      <trkpt lat="44.43272" lon="1.08003">
        <ele>252.002808</ele>
        <time>2011-04-10T08:18:30Z</time>
      </trkpt>
      <trkpt lat="44.43268" lon="1.0798">
        <ele>253.444702</ele>
        <time>2011-04-10T08:18:40Z</time>
      </trkpt>
      <trkpt lat="44.4326" lon="1.07956">
        <ele>257.290039</ele>
        <time>2011-04-10T08:18:50Z</time>
      </trkpt>
      <trkpt lat="44.43245" lon="1.07922">
        <ele>260.654541</ele>
        <time>2011-04-10T08:19:05Z</time>
      </trkpt>
      <trkpt lat="44.43229" lon="1.07886">
        <ele>263.538574</ele>
        <time>2011-04-10T08:19:20Z</time>
      </trkpt>
      <trkpt lat="44.43209" lon="1.07854">
        <ele>264.499878</ele>
        <time>2011-04-10T08:19:35Z</time>
      </trkpt>
      <trkpt lat="44.43192" lon="1.07824">
        <ele>265.941895</ele>
        <time>2011-04-10T08:19:46Z</time>
      </trkpt>
      <trkpt lat="44.4317" lon="1.07775">
        <ele>267.383911</ele>
        <time>2011-04-10T08:20:00Z</time>
      </trkpt>
      <trkpt lat="44.43154" lon="1.07717">
        <ele>266.903198</ele>
        <time>2011-04-10T08:20:13Z</time>
      </trkpt>
      <trkpt lat="44.43143" lon="1.07665">
        <ele>269.787109</ele>
        <time>2011-04-10T08:20:26Z</time>
      </trkpt>
      <trkpt lat="44.43142" lon="1.07607">
        <ele>272.19043</ele>
        <time>2011-04-10T08:20:40Z</time>
      </trkpt>
      <trkpt lat="44.43142" lon="1.07561">
        <ele>272.671143</ele>
        <time>2011-04-10T08:20:51Z</time>
      </trkpt>
      <trkpt lat="44.43143" lon="1.07493">
        <ele>271.709717</ele>
        <time>2011-04-10T08:21:06Z</time>
      </trkpt>
      <trkpt lat="44.43146" lon="1.07471">
        <ele>271.709717</ele>
        <time>2011-04-10T08:21:10Z</time>
      </trkpt>
      <trkpt lat="44.43135" lon="1.07438">
        <ele>270.748413</ele>
        <time>2011-04-10T08:21:16Z</time>
      </trkpt>
      <trkpt lat="44.43126" lon="1.07433">
        <ele>270.748413</ele>
        <time>2011-04-10T08:21:18Z</time>
      </trkpt>
      <trkpt lat="44.43108" lon="1.07426">
        <ele>270.2677</ele>
        <time>2011-04-10T08:21:22Z</time>
      </trkpt>
      <trkpt lat="44.43064" lon="1.07409">
        <ele>270.2677</ele>
        <time>2011-04-10T08:21:31Z</time>
      </trkpt>
      <trkpt lat="44.43025" lon="1.07397">
        <ele>269.787109</ele>
        <time>2011-04-10T08:21:38Z</time>
      </trkpt>
      <trkpt lat="44.43011" lon="1.07376">
        <ele>270.2677</ele>
        <time>2011-04-10T08:21:44Z</time>
      </trkpt>
      <trkpt lat="44.43015" lon="1.07344">
        <ele>270.748413</ele>
        <time>2011-04-10T08:21:50Z</time>
      </trkpt>
      <trkpt lat="44.43005" lon="1.07321">
        <ele>269.787109</ele>
        <time>2011-04-10T08:21:55Z</time>
      </trkpt>
      <trkpt lat="44.42976" lon="1.07284">
        <ele>267.864502</ele>
        <time>2011-04-10T08:22:07Z</time>
      </trkpt>
      <trkpt lat="44.42951" lon="1.07241">
        <ele>265.461304</ele>
        <time>2011-04-10T08:22:18Z</time>
      </trkpt>
      <trkpt lat="44.42919" lon="1.07196">
        <ele>263.057861</ele>
        <time>2011-04-10T08:22:30Z</time>
      </trkpt>
      <trkpt lat="44.42909" lon="1.07176">
        <ele>261.135254</ele>
        <time>2011-04-10T08:22:34Z</time>
      </trkpt>
      <trkpt lat="44.42904" lon="1.07165">
        <ele>260.17395</ele>
        <time>2011-04-10T08:22:36Z</time>
      </trkpt>
      <trkpt lat="44.42884" lon="1.07128">
        <ele>257.290039</ele>
        <time>2011-04-10T08:22:42Z</time>
      </trkpt>
      <trkpt lat="44.42875" lon="1.07116">
        <ele>255.848022</ele>
        <time>2011-04-10T08:22:44Z</time>
      </trkpt>
      <trkpt lat="44.42866" lon="1.07089">
        <ele>254.886597</ele>
        <time>2011-04-10T08:22:48Z</time>
      </trkpt>
      <trkpt lat="44.42864" lon="1.07076">
        <ele>254.886597</ele>
        <time>2011-04-10T08:22:50Z</time>
      </trkpt>
      <trkpt lat="44.42856" lon="1.0697">
        <ele>252.002808</ele>
        <time>2011-04-10T08:23:03Z</time>
      </trkpt>
      <trkpt lat="44.42847" lon="1.06895">
        <ele>251.522095</ele>
        <time>2011-04-10T08:23:12Z</time>
      </trkpt>
      <trkpt lat="44.42843" lon="1.06856">
        <ele>251.522095</ele>
        <time>2011-04-10T08:23:17Z</time>
      </trkpt>
      <trkpt lat="44.42841" lon="1.06833">
        <ele>250.560791</ele>
        <time>2011-04-10T08:23:20Z</time>
      </trkpt>
      <trkpt lat="44.4283" lon="1.06807">
        <ele>250.0802</ele>
        <time>2011-04-10T08:23:24Z</time>
      </trkpt>
      <trkpt lat="44.42818" lon="1.06788">
        <ele>249.118774</ele>
        <time>2011-04-10T08:23:28Z</time>
      </trkpt>
      <trkpt lat="44.42807" lon="1.06766">
        <ele>248.157593</ele>
        <time>2011-04-10T08:23:32Z</time>
      </trkpt>
      <trkpt lat="44.42795" lon="1.0675">
        <ele>248.638184</ele>
        <time>2011-04-10T08:23:35Z</time>
      </trkpt>
      <trkpt lat="44.42793" lon="1.06718">
        <ele>248.638184</ele>
        <time>2011-04-10T08:23:40Z</time>
      </trkpt>
      <trkpt lat="44.428" lon="1.06705">
        <ele>248.638184</ele>
        <time>2011-04-10T08:23:42Z</time>
      </trkpt>
      <trkpt lat="44.42849" lon="1.06606">
        <ele>249.118774</ele>
        <time>2011-04-10T08:23:54Z</time>
      </trkpt>
      <trkpt lat="44.42873" lon="1.06529">
        <ele>249.118774</ele>
        <time>2011-04-10T08:24:02Z</time>
      </trkpt>
      <trkpt lat="44.4289" lon="1.06486">
        <ele>248.638184</ele>
        <time>2011-04-10T08:24:07Z</time>
      </trkpt>
      <trkpt lat="44.42942" lon="1.06401">
        <ele>247.676758</ele>
        <time>2011-04-10T08:24:19Z</time>
      </trkpt>
      <trkpt lat="44.42953" lon="1.06388">
        <ele>247.676758</ele>
        <time>2011-04-10T08:24:21Z</time>
      </trkpt>
      <trkpt lat="44.42981" lon="1.06349">
        <ele>249.118774</ele>
        <time>2011-04-10T08:24:27Z</time>
      </trkpt>
      <trkpt lat="44.43013" lon="1.06316">
        <ele>250.0802</ele>
        <time>2011-04-10T08:24:34Z</time>
      </trkpt>
      <trkpt lat="44.43074" lon="1.06268">
        <ele>253.925415</ele>
        <time>2011-04-10T08:24:48Z</time>
      </trkpt>
      <trkpt lat="44.43105" lon="1.0624">
        <ele>256.328735</ele>
        <time>2011-04-10T08:24:59Z</time>
      </trkpt>
      <trkpt lat="44.43132" lon="1.06218">
        <ele>259.693359</ele>
        <time>2011-04-10T08:25:11Z</time>
      </trkpt>
      <trkpt lat="44.43158" lon="1.06198">
        <ele>259.693359</ele>
        <time>2011-04-10T08:25:20Z</time>
      </trkpt>
      <trkpt lat="44.43194" lon="1.06169">
        <ele>259.212646</ele>
        <time>2011-04-10T08:25:29Z</time>
      </trkpt>
      <trkpt lat="44.43256" lon="1.06117">
        <ele>258.251343</ele>
        <time>2011-04-10T08:25:42Z</time>
      </trkpt>
      <trkpt lat="44.4333" lon="1.06044">
        <ele>254.406006</ele>
        <time>2011-04-10T08:25:55Z</time>
      </trkpt>
      <trkpt lat="44.43395" lon="1.06">
        <ele>252.483398</ele>
        <time>2011-04-10T08:26:08Z</time>
      </trkpt>
      <trkpt lat="44.43447" lon="1.05954">
        <ele>250.560791</ele>
        <time>2011-04-10T08:26:19Z</time>
      </trkpt>
      <trkpt lat="44.4347" lon="1.0593">
        <ele>249.118774</ele>
        <time>2011-04-10T08:26:24Z</time>
      </trkpt>
      <trkpt lat="44.43493" lon="1.05906">
        <ele>248.157593</ele>
        <time>2011-04-10T08:26:29Z</time>
      </trkpt>
      <trkpt lat="44.43571" lon="1.05834">
        <ele>241.908936</ele>
        <time>2011-04-10T08:26:43Z</time>
      </trkpt>
      <trkpt lat="44.43582" lon="1.05823">
        <ele>240.947632</ele>
        <time>2011-04-10T08:26:45Z</time>
      </trkpt>
      <trkpt lat="44.43593" lon="1.05812">
        <ele>240.947632</ele>
        <time>2011-04-10T08:26:47Z</time>
      </trkpt>
      <trkpt lat="44.43606" lon="1.05793">
        <ele>239.986206</ele>
        <time>2011-04-10T08:26:50Z</time>
      </trkpt>
      <trkpt lat="44.43615" lon="1.05782">
        <ele>239.986206</ele>
        <time>2011-04-10T08:26:52Z</time>
      </trkpt>
      <trkpt lat="44.43674" lon="1.05726">
        <ele>239.505493</ele>
        <time>2011-04-10T08:27:03Z</time>
      </trkpt>
      <trkpt lat="44.43719" lon="1.05678">
        <ele>239.024902</ele>
        <time>2011-04-10T08:27:12Z</time>
      </trkpt>
      <trkpt lat="44.43768" lon="1.05625">
        <ele>236.140991</ele>
        <time>2011-04-10T08:27:21Z</time>
      </trkpt>
      <trkpt lat="44.43786" lon="1.05599">
        <ele>234.699097</ele>
        <time>2011-04-10T08:27:25Z</time>
      </trkpt>
      <trkpt lat="44.43811" lon="1.05539">
        <ele>231.814941</ele>
        <time>2011-04-10T08:27:32Z</time>
      </trkpt>
      <trkpt lat="44.4382" lon="1.05525">
        <ele>231.334351</ele>
        <time>2011-04-10T08:27:34Z</time>
      </trkpt>
      <trkpt lat="44.43848" lon="1.055">
        <ele>229.892334</ele>
        <time>2011-04-10T08:27:39Z</time>
      </trkpt>
      <trkpt lat="44.43902" lon="1.0548">
        <ele>229.411743</ele>
        <time>2011-04-10T08:27:47Z</time>
      </trkpt>
      <trkpt lat="44.43993" lon="1.0545">
        <ele>227.969727</ele>
        <time>2011-04-10T08:28:01Z</time>
      </trkpt>
      <trkpt lat="44.44036" lon="1.05432">
        <ele>229.411743</ele>
        <time>2011-04-10T08:28:09Z</time>
      </trkpt>
      <trkpt lat="44.44072" lon="1.05402">
        <ele>228.931152</ele>
        <time>2011-04-10T08:28:18Z</time>
      </trkpt>
      <trkpt lat="44.44103" lon="1.05372">
        <ele>228.450439</ele>
        <time>2011-04-10T08:28:26Z</time>
      </trkpt>
      <trkpt lat="44.44148" lon="1.05325">
        <ele>230.85376</ele>
        <time>2011-04-10T08:28:40Z</time>
      </trkpt>
      <trkpt lat="44.4418" lon="1.053">
        <ele>233.25708</ele>
        <time>2011-04-10T08:28:52Z</time>
      </trkpt>
      <trkpt lat="44.44211" lon="1.05277">
        <ele>233.25708</ele>
        <time>2011-04-10T08:29:02Z</time>
      </trkpt>
      <trkpt lat="44.44236" lon="1.05254">
        <ele>232.295776</ele>
        <time>2011-04-10T08:29:10Z</time>
      </trkpt>
      <trkpt lat="44.44274" lon="1.05215">
        <ele>232.776489</ele>
        <time>2011-04-10T08:29:21Z</time>
      </trkpt>
      <trkpt lat="44.44293" lon="1.05191">
        <ele>232.776489</ele>
        <time>2011-04-10T08:29:27Z</time>
      </trkpt>
      <trkpt lat="44.4436" lon="1.05156">
        <ele>227.489136</ele>
        <time>2011-04-10T08:29:40Z</time>
      </trkpt>
      <trkpt lat="44.44375" lon="1.05148">
        <ele>227.008545</ele>
        <time>2011-04-10T08:29:43Z</time>
      </trkpt>
      <trkpt lat="44.44396" lon="1.05137">
        <ele>226.527832</ele>
        <time>2011-04-10T08:29:48Z</time>
      </trkpt>
      <trkpt lat="44.4443" lon="1.05126">
        <ele>226.527832</ele>
        <time>2011-04-10T08:29:56Z</time>
      </trkpt>
      <trkpt lat="44.44456" lon="1.05085">
        <ele>224.605225</ele>
        <time>2011-04-10T08:30:04Z</time>
      </trkpt>
      <trkpt lat="44.4447" lon="1.05064">
        <ele>222.682495</ele>
        <time>2011-04-10T08:30:08Z</time>
      </trkpt>
      <trkpt lat="44.44481" lon="1.05047">
        <ele>221.721191</ele>
        <time>2011-04-10T08:30:11Z</time>
      </trkpt>
      <trkpt lat="44.44508" lon="1.05015">
        <ele>220.759888</ele>
        <time>2011-04-10T08:30:20Z</time>
      </trkpt>
      <trkpt lat="44.44512" lon="1.05019">
        <ele>220.279175</ele>
        <time>2011-04-10T08:30:21Z</time>
      </trkpt>
      <trkpt lat="44.44558" lon="1.05047">
        <ele>217.395386</ele>
        <time>2011-04-10T08:30:29Z</time>
      </trkpt>
      <trkpt lat="44.4459" lon="1.05045">
        <ele>216.43396</ele>
        <time>2011-04-10T08:30:35Z</time>
      </trkpt>
      <trkpt lat="44.44596" lon="1.05037">
        <ele>216.43396</ele>
        <time>2011-04-10T08:30:37Z</time>
      </trkpt>
      <trkpt lat="44.44609" lon="1.05017">
        <ele>215.953247</ele>
        <time>2011-04-10T08:30:42Z</time>
      </trkpt>
      <trkpt lat="44.44616" lon="1.05004">
        <ele>215.472656</ele>
        <time>2011-04-10T08:30:45Z</time>
      </trkpt>
      <trkpt lat="44.44638" lon="1.0498">
        <ele>214.991943</ele>
        <time>2011-04-10T08:30:52Z</time>
      </trkpt>
      <trkpt lat="44.44653" lon="1.0499">
        <ele>214.991943</ele>
        <time>2011-04-10T08:30:57Z</time>
      </trkpt>
      <trkpt lat="44.44666" lon="1.05014">
        <ele>215.472656</ele>
        <time>2011-04-10T08:31:04Z</time>
      </trkpt>
      <trkpt lat="44.44692" lon="1.04992">
        <ele>217.875977</ele>
        <time>2011-04-10T08:31:13Z</time>
      </trkpt>
      <trkpt lat="44.44699" lon="1.04986">
        <ele>217.875977</ele>
        <time>2011-04-10T08:31:15Z</time>
      </trkpt>
      <trkpt lat="44.44723" lon="1.04938">
        <ele>218.356567</ele>
        <time>2011-04-10T08:31:26Z</time>
      </trkpt>
      <trkpt lat="44.44732" lon="1.04916">
        <ele>218.356567</ele>
        <time>2011-04-10T08:31:31Z</time>
      </trkpt>
      <trkpt lat="44.44808" lon="1.04901">
        <ele>215.953247</ele>
        <time>2011-04-10T08:31:46Z</time>
      </trkpt>
      <trkpt lat="44.44895" lon="1.0488">
        <ele>212.588623</ele>
        <time>2011-04-10T08:32:00Z</time>
      </trkpt>
      <trkpt lat="44.44979" lon="1.04865">
        <ele>210.666016</ele>
        <time>2011-04-10T08:32:13Z</time>
      </trkpt>
      <trkpt lat="44.45051" lon="1.04855">
        <ele>209.704834</ele>
        <time>2011-04-10T08:32:24Z</time>
      </trkpt>
      <trkpt lat="44.451" lon="1.04849">
        <ele>209.224121</ele>
        <time>2011-04-10T08:32:34Z</time>
      </trkpt>
      <trkpt lat="44.45116" lon="1.04848">
        <ele>208.743408</ele>
        <time>2011-04-10T08:32:38Z</time>
      </trkpt>
      <trkpt lat="44.45125" lon="1.04848">
        <ele>208.743408</ele>
        <time>2011-04-10T08:32:40Z</time>
      </trkpt>
      <trkpt lat="44.45138" lon="1.04847">
        <ele>208.743408</ele>
        <time>2011-04-10T08:32:43Z</time>
      </trkpt>
      <trkpt lat="44.452" lon="1.04822">
        <ele>208.743408</ele>
        <time>2011-04-10T08:32:57Z</time>
      </trkpt>
      <trkpt lat="44.45206" lon="1.04817">
        <ele>208.743408</ele>
        <time>2011-04-10T08:32:59Z</time>
      </trkpt>
      <trkpt lat="44.45214" lon="1.04792">
        <ele>209.224121</ele>
        <time>2011-04-10T08:33:05Z</time>
      </trkpt>
      <trkpt lat="44.45216" lon="1.04755">
        <ele>209.704834</ele>
        <time>2011-04-10T08:33:15Z</time>
      </trkpt>
      <trkpt lat="44.45213" lon="1.04752">
        <ele>209.704834</ele>
        <time>2011-04-10T08:33:24Z</time>
      </trkpt>
      <trkpt lat="44.45215" lon="1.04748">
        <ele>212.108032</ele>
        <time>2011-04-10T08:34:16Z</time>
      </trkpt>
      <trkpt lat="44.45215" lon="1.04747">
        <ele>212.108032</ele>
        <time>2011-04-10T08:40:17Z</time>
      </trkpt>
      <trkpt lat="44.45212" lon="1.04754">
        <ele>212.108032</ele>
        <time>2011-04-10T08:40:23Z</time>
      </trkpt>
      <trkpt lat="44.45193" lon="1.04764">
        <ele>210.666016</ele>
        <time>2011-04-10T08:40:31Z</time>
      </trkpt>
      <trkpt lat="44.45181" lon="1.0477">
        <ele>209.704834</ele>
        <time>2011-04-10T08:40:34Z</time>
      </trkpt>
      <trkpt lat="44.45149" lon="1.04775">
        <ele>210.185425</ele>
        <time>2011-04-10T08:40:44Z</time>
      </trkpt>
      <trkpt lat="44.45146" lon="1.0476">
        <ele>209.704834</ele>
        <time>2011-04-10T08:40:48Z</time>
      </trkpt>
      <trkpt lat="44.45145" lon="1.0475">
        <ele>209.704834</ele>
        <time>2011-04-10T08:40:50Z</time>
      </trkpt>
      <trkpt lat="44.45143" lon="1.04728">
        <ele>210.666016</ele>
        <time>2011-04-10T08:40:54Z</time>
      </trkpt>
      <trkpt lat="44.45135" lon="1.04648">
        <ele>210.666016</ele>
        <time>2011-04-10T08:41:09Z</time>
      </trkpt>
      <trkpt lat="44.45131" lon="1.04597">
        <ele>211.627441</ele>
        <time>2011-04-10T08:41:21Z</time>
      </trkpt>
      <trkpt lat="44.45155" lon="1.04543">
        <ele>212.108032</ele>
        <time>2011-04-10T08:41:34Z</time>
      </trkpt>
      <trkpt lat="44.45185" lon="1.04477">
        <ele>211.627441</ele>
        <time>2011-04-10T08:41:49Z</time>
      </trkpt>
      <trkpt lat="44.45195" lon="1.04455">
        <ele>210.666016</ele>
        <time>2011-04-10T08:41:54Z</time>
      </trkpt>
      <trkpt lat="44.45235" lon="1.0437">
        <ele>207.301392</ele>
        <time>2011-04-10T08:42:10Z</time>
      </trkpt>
      <trkpt lat="44.45248" lon="1.04343">
        <ele>206.340088</ele>
        <time>2011-04-10T08:42:14Z</time>
      </trkpt>
      <trkpt lat="44.45303" lon="1.0426">
        <ele>201.533569</ele>
        <time>2011-04-10T08:42:27Z</time>
      </trkpt>
      <trkpt lat="44.45308" lon="1.04253">
        <ele>201.052856</ele>
        <time>2011-04-10T08:42:28Z</time>
      </trkpt>
      <trkpt lat="44.45331" lon="1.04233">
        <ele>199.61084</ele>
        <time>2011-04-10T08:42:32Z</time>
      </trkpt>
      <trkpt lat="44.45376" lon="1.04205">
        <ele>199.130127</ele>
        <time>2011-04-10T08:42:45Z</time>
      </trkpt>
      <trkpt lat="44.45389" lon="1.04197">
        <ele>199.61084</ele>
        <time>2011-04-10T08:42:55Z</time>
      </trkpt>
      <trkpt lat="44.45389" lon="1.04197">
        <ele>199.61084</ele>
        <time>2011-04-10T08:42:56Z</time>
      </trkpt>
      <trkpt lat="44.45361" lon="1.04213">
        <ele>200.091675</ele>
        <time>2011-04-10T08:43:10Z</time>
      </trkpt>
      <trkpt lat="44.45321" lon="1.04235">
        <ele>198.649536</ele>
        <time>2011-04-10T08:43:23Z</time>
      </trkpt>
      <trkpt lat="44.45312" lon="1.04228">
        <ele>197.688232</ele>
        <time>2011-04-10T08:43:29Z</time>
      </trkpt>
      <trkpt lat="44.45309" lon="1.04224">
        <ele>197.20752</ele>
        <time>2011-04-10T08:43:44Z</time>
      </trkpt>
      <trkpt lat="44.4531" lon="1.04246">
        <ele>198.649536</ele>
        <time>2011-04-10T08:43:53Z</time>
      </trkpt>
      <trkpt lat="44.45292" lon="1.04279">
        <ele>200.091675</ele>
        <time>2011-04-10T08:44:06Z</time>
      </trkpt>
      <trkpt lat="44.45267" lon="1.04317">
        <ele>200.572266</ele>
        <time>2011-04-10T08:44:21Z</time>
      </trkpt>
      <trkpt lat="44.45262" lon="1.04333">
        <ele>201.533569</ele>
        <time>2011-04-10T08:44:27Z</time>
      </trkpt>
      <trkpt lat="44.4527" lon="1.04344">
        <ele>202.014282</ele>
        <time>2011-04-10T08:44:33Z</time>
      </trkpt>
      <trkpt lat="44.45296" lon="1.04359">
        <ele>203.93689</ele>
        <time>2011-04-10T08:44:47Z</time>
      </trkpt>
      <trkpt lat="44.45292" lon="1.04354">
        <ele>203.456177</ele>
        <time>2011-04-10T08:45:00Z</time>
      </trkpt>
      <trkpt lat="44.45283" lon="1.04348">
        <ele>202.975464</ele>
        <time>2011-04-10T08:45:04Z</time>
      </trkpt>
      <trkpt lat="44.45261" lon="1.04339">
        <ele>202.014282</ele>
        <time>2011-04-10T08:45:09Z</time>
      </trkpt>
      <trkpt lat="44.45247" lon="1.04346">
        <ele>201.052856</ele>
        <time>2011-04-10T08:45:13Z</time>
      </trkpt>
      <trkpt lat="44.45228" lon="1.04387">
        <ele>201.533569</ele>
        <time>2011-04-10T08:45:24Z</time>
      </trkpt>
      <trkpt lat="44.4522" lon="1.04387">
        <ele>202.014282</ele>
        <time>2011-04-10T08:45:28Z</time>
      </trkpt>
      <trkpt lat="44.45171" lon="1.04365">
        <ele>199.61084</ele>
        <time>2011-04-10T08:45:42Z</time>
      </trkpt>
      <trkpt lat="44.4513" lon="1.04349">
        <ele>199.61084</ele>
        <time>2011-04-10T08:45:56Z</time>
      </trkpt>
      <trkpt lat="44.45097" lon="1.04338">
        <ele>201.533569</ele>
        <time>2011-04-10T08:46:09Z</time>
      </trkpt>
      <trkpt lat="44.45087" lon="1.04336">
        <ele>202.494873</ele>
        <time>2011-04-10T08:46:13Z</time>
      </trkpt>
      <trkpt lat="44.45057" lon="1.04327">
        <ele>205.378784</ele>
        <time>2011-04-10T08:46:26Z</time>
      </trkpt>
      <trkpt lat="44.45023" lon="1.04337">
        <ele>209.704834</ele>
        <time>2011-04-10T08:46:41Z</time>
      </trkpt>
      <trkpt lat="44.44993" lon="1.0435">
        <ele>211.146729</ele>
        <time>2011-04-10T08:46:55Z</time>
      </trkpt>
      <trkpt lat="44.44969" lon="1.0436">
        <ele>212.108032</ele>
        <time>2011-04-10T08:47:06Z</time>
      </trkpt>
      <trkpt lat="44.44941" lon="1.04374">
        <ele>214.991943</ele>
        <time>2011-04-10T08:47:20Z</time>
      </trkpt>
      <trkpt lat="44.4492" lon="1.04384">
        <ele>217.875977</ele>
        <time>2011-04-10T08:47:31Z</time>
      </trkpt>
      <trkpt lat="44.44899" lon="1.0439">
        <ele>219.798584</ele>
        <time>2011-04-10T08:47:41Z</time>
      </trkpt>
      <trkpt lat="44.44877" lon="1.04394">
        <ele>223.163208</ele>
        <time>2011-04-10T08:47:52Z</time>
      </trkpt>
      <trkpt lat="44.44846" lon="1.04398">
        <ele>225.566528</ele>
        <time>2011-04-10T08:48:06Z</time>
      </trkpt>
      <trkpt lat="44.44835" lon="1.04399">
        <ele>226.527832</ele>
        <time>2011-04-10T08:48:10Z</time>
      </trkpt>
      <trkpt lat="44.44817" lon="1.044">
        <ele>226.527832</ele>
        <time>2011-04-10T08:48:17Z</time>
      </trkpt>
      <trkpt lat="44.44777" lon="1.04406">
        <ele>226.527832</ele>
        <time>2011-04-10T08:48:31Z</time>
      </trkpt>
      <trkpt lat="44.44731" lon="1.04404">
        <ele>224.605225</ele>
        <time>2011-04-10T08:48:42Z</time>
      </trkpt>
      <trkpt lat="44.44694" lon="1.04403">
        <ele>221.240601</ele>
        <time>2011-04-10T08:48:51Z</time>
      </trkpt>
      <trkpt lat="44.44629" lon="1.0441">
        <ele>219.798584</ele>
        <time>2011-04-10T08:49:05Z</time>
      </trkpt>
      <trkpt lat="44.44579" lon="1.04414">
        <ele>217.875977</ele>
        <time>2011-04-10T08:49:15Z</time>
      </trkpt>
      <trkpt lat="44.44555" lon="1.04418">
        <ele>217.395386</ele>
        <time>2011-04-10T08:49:20Z</time>
      </trkpt>
      <trkpt lat="44.44502" lon="1.04433">
        <ele>217.395386</ele>
        <time>2011-04-10T08:49:35Z</time>
      </trkpt>
      <trkpt lat="44.44455" lon="1.04447">
        <ele>218.83728</ele>
        <time>2011-04-10T08:49:52Z</time>
      </trkpt>
      <trkpt lat="44.44419" lon="1.04449">
        <ele>219.317993</ele>
        <time>2011-04-10T08:50:04Z</time>
      </trkpt>
      <trkpt lat="44.44394" lon="1.04439">
        <ele>218.83728</ele>
        <time>2011-04-10T08:50:11Z</time>
      </trkpt>
      <trkpt lat="44.44344" lon="1.04413">
        <ele>218.356567</ele>
        <time>2011-04-10T08:50:22Z</time>
      </trkpt>
      <trkpt lat="44.44329" lon="1.04409">
        <ele>218.356567</ele>
        <time>2011-04-10T08:50:25Z</time>
      </trkpt>
      <trkpt lat="44.44269" lon="1.04403">
        <ele>216.914673</ele>
        <time>2011-04-10T08:50:36Z</time>
      </trkpt>
      <trkpt lat="44.44254" lon="1.04401">
        <ele>216.914673</ele>
        <time>2011-04-10T08:50:39Z</time>
      </trkpt>
      <trkpt lat="44.44165" lon="1.04394">
        <ele>212.588623</ele>
        <time>2011-04-10T08:50:57Z</time>
      </trkpt>
      <trkpt lat="44.44143" lon="1.04392">
        <ele>215.953247</ele>
        <time>2011-04-10T08:51:02Z</time>
      </trkpt>
      <trkpt lat="44.44099" lon="1.0438">
        <ele>219.317993</ele>
        <time>2011-04-10T08:51:15Z</time>
      </trkpt>
      <trkpt lat="44.4405" lon="1.0437">
        <ele>220.759888</ele>
        <time>2011-04-10T08:51:31Z</time>
      </trkpt>
      <trkpt lat="44.44033" lon="1.04368">
        <ele>220.759888</ele>
        <time>2011-04-10T08:51:36Z</time>
      </trkpt>
      <trkpt lat="44.43992" lon="1.04367">
        <ele>221.721191</ele>
        <time>2011-04-10T08:51:47Z</time>
      </trkpt>
      <trkpt lat="44.43988" lon="1.04367">
        <ele>221.721191</ele>
        <time>2011-04-10T08:51:48Z</time>
      </trkpt>
      <trkpt lat="44.4397" lon="1.0437">
        <ele>222.201782</ele>
        <time>2011-04-10T08:51:52Z</time>
      </trkpt>
      <trkpt lat="44.43928" lon="1.04386">
        <ele>223.643799</ele>
        <time>2011-04-10T08:52:01Z</time>
      </trkpt>
      <trkpt lat="44.43913" lon="1.04395">
        <ele>223.643799</ele>
        <time>2011-04-10T08:52:05Z</time>
      </trkpt>
      <trkpt lat="44.43907" lon="1.04398">
        <ele>223.643799</ele>
        <time>2011-04-10T08:52:07Z</time>
      </trkpt>
      <trkpt lat="44.43859" lon="1.0438">
        <ele>223.163208</ele>
        <time>2011-04-10T08:52:20Z</time>
      </trkpt>
      <trkpt lat="44.43822" lon="1.04369">
        <ele>224.605225</ele>
        <time>2011-04-10T08:52:34Z</time>
      </trkpt>
      <trkpt lat="44.43793" lon="1.04363">
        <ele>225.085938</ele>
        <time>2011-04-10T08:52:47Z</time>
      </trkpt>
      <trkpt lat="44.43769" lon="1.04359">
        <ele>225.566528</ele>
        <time>2011-04-10T08:53:01Z</time>
      </trkpt>
      <trkpt lat="44.4375" lon="1.04354">
        <ele>227.008545</ele>
        <time>2011-04-10T08:53:13Z</time>
      </trkpt>
      <trkpt lat="44.43725" lon="1.04347">
        <ele>227.969727</ele>
        <time>2011-04-10T08:53:29Z</time>
      </trkpt>
      <trkpt lat="44.43704" lon="1.04341">
        <ele>231.334351</ele>
        <time>2011-04-10T08:53:44Z</time>
      </trkpt>
      <trkpt lat="44.43688" lon="1.04335">
        <ele>234.218384</ele>
        <time>2011-04-10T08:53:58Z</time>
      </trkpt>
      <trkpt lat="44.4367" lon="1.04328">
        <ele>235.660278</ele>
        <time>2011-04-10T08:54:13Z</time>
      </trkpt>
      <trkpt lat="44.43651" lon="1.0432">
        <ele>237.582886</ele>
        <time>2011-04-10T08:54:26Z</time>
      </trkpt>
      <trkpt lat="44.43616" lon="1.04298">
        <ele>238.544312</ele>
        <time>2011-04-10T08:54:38Z</time>
      </trkpt>
      <trkpt lat="44.4359" lon="1.04281">
        <ele>237.582886</ele>
        <time>2011-04-10T08:54:45Z</time>
      </trkpt>
      <trkpt lat="44.43577" lon="1.04275">
        <ele>237.582886</ele>
        <time>2011-04-10T08:54:48Z</time>
      </trkpt>
      <trkpt lat="44.43547" lon="1.04262">
        <ele>237.102295</ele>
        <time>2011-04-10T08:54:54Z</time>
      </trkpt>
      <trkpt lat="44.43492" lon="1.04198">
        <ele>232.295776</ele>
        <time>2011-04-10T08:55:06Z</time>
      </trkpt>
      <trkpt lat="44.43468" lon="1.04168">
        <ele>230.373047</ele>
        <time>2011-04-10T08:55:12Z</time>
      </trkpt>
      <trkpt lat="44.43453" lon="1.04148">
        <ele>228.450439</ele>
        <time>2011-04-10T08:55:16Z</time>
      </trkpt>
      <trkpt lat="44.43444" lon="1.04136">
        <ele>227.489136</ele>
        <time>2011-04-10T08:55:18Z</time>
      </trkpt>
      <trkpt lat="44.43419" lon="1.04098">
        <ele>223.643799</ele>
        <time>2011-04-10T08:55:26Z</time>
      </trkpt>
      <trkpt lat="44.43372" lon="1.04124">
        <ele>220.759888</ele>
        <time>2011-04-10T08:55:36Z</time>
      </trkpt>
      <trkpt lat="44.43319" lon="1.04158">
        <ele>221.240601</ele>
        <time>2011-04-10T08:55:47Z</time>
      </trkpt>
      <trkpt lat="44.43315" lon="1.04163">
        <ele>222.201782</ele>
        <time>2011-04-10T08:55:49Z</time>
      </trkpt>
      <trkpt lat="44.4331" lon="1.04186">
        <ele>226.527832</ele>
        <time>2011-04-10T08:56:01Z</time>
      </trkpt>
      <trkpt lat="44.43307" lon="1.04203">
        <ele>229.411743</ele>
        <time>2011-04-10T08:56:08Z</time>
      </trkpt>
      <trkpt lat="44.43302" lon="1.04221">
        <ele>231.814941</ele>
        <time>2011-04-10T08:56:16Z</time>
      </trkpt>
      <trkpt lat="44.43288" lon="1.04245">
        <ele>231.814941</ele>
        <time>2011-04-10T08:56:30Z</time>
      </trkpt>
      <trkpt lat="44.43273" lon="1.04256">
        <ele>233.25708</ele>
        <time>2011-04-10T08:56:39Z</time>
      </trkpt>
      <trkpt lat="44.43266" lon="1.04264">
        <ele>233.737671</ele>
        <time>2011-04-10T08:56:44Z</time>
      </trkpt>
      <trkpt lat="44.43242" lon="1.04284">
        <ele>234.699097</ele>
        <time>2011-04-10T08:56:59Z</time>
      </trkpt>
      <trkpt lat="44.43205" lon="1.04313">
        <ele>235.660278</ele>
        <time>2011-04-10T08:57:14Z</time>
      </trkpt>
      <trkpt lat="44.43174" lon="1.04335">
        <ele>235.660278</ele>
        <time>2011-04-10T08:57:28Z</time>
      </trkpt>
      <trkpt lat="44.43152" lon="1.04358">
        <ele>237.582886</ele>
        <time>2011-04-10T08:57:41Z</time>
      </trkpt>
      <trkpt lat="44.43121" lon="1.04398">
        <ele>239.986206</ele>
        <time>2011-04-10T08:57:55Z</time>
      </trkpt>
      <trkpt lat="44.43102" lon="1.0443">
        <ele>240.467041</ele>
        <time>2011-04-10T08:58:06Z</time>
      </trkpt>
      <trkpt lat="44.43099" lon="1.0445">
        <ele>239.505493</ele>
        <time>2011-04-10T08:58:10Z</time>
      </trkpt>
      <trkpt lat="44.43094" lon="1.04468">
        <ele>239.024902</ele>
        <time>2011-04-10T08:58:13Z</time>
      </trkpt>
      <trkpt lat="44.43072" lon="1.04524">
        <ele>241.908936</ele>
        <time>2011-04-10T08:58:26Z</time>
      </trkpt>
      <trkpt lat="44.43061" lon="1.04577">
        <ele>245.75415</ele>
        <time>2011-04-10T08:58:39Z</time>
      </trkpt>
      <trkpt lat="44.43049" lon="1.046">
        <ele>245.75415</ele>
        <time>2011-04-10T08:58:45Z</time>
      </trkpt>
      <trkpt lat="44.43034" lon="1.04592">
        <ele>245.75415</ele>
        <time>2011-04-10T08:58:53Z</time>
      </trkpt>
      <trkpt lat="44.43022" lon="1.04573">
        <ele>246.715454</ele>
        <time>2011-04-10T08:59:04Z</time>
      </trkpt>
      <trkpt lat="44.43009" lon="1.04553">
        <ele>247.196045</ele>
        <time>2011-04-10T08:59:16Z</time>
      </trkpt>
      <trkpt lat="44.42984" lon="1.04537">
        <ele>249.118774</ele>
        <time>2011-04-10T08:59:30Z</time>
      </trkpt>
      <trkpt lat="44.42954" lon="1.04529">
        <ele>250.560791</ele>
        <time>2011-04-10T08:59:41Z</time>
      </trkpt>
      <trkpt lat="44.42904" lon="1.04543">
        <ele>251.522095</ele>
        <time>2011-04-10T08:59:55Z</time>
      </trkpt>
      <trkpt lat="44.42832" lon="1.04558">
        <ele>251.041382</ele>
        <time>2011-04-10T09:00:10Z</time>
      </trkpt>
      <trkpt lat="44.42751" lon="1.04555">
        <ele>247.676758</ele>
        <time>2011-04-10T09:00:23Z</time>
      </trkpt>
      <trkpt lat="44.42684" lon="1.04539">
        <ele>246.234863</ele>
        <time>2011-04-10T09:00:33Z</time>
      </trkpt>
      <trkpt lat="44.42616" lon="1.0452">
        <ele>245.75415</ele>
        <time>2011-04-10T09:00:45Z</time>
      </trkpt>
      <trkpt lat="44.42576" lon="1.04519">
        <ele>245.273438</ele>
        <time>2011-04-10T09:00:53Z</time>
      </trkpt>
      <trkpt lat="44.42492" lon="1.04555">
        <ele>242.389648</ele>
        <time>2011-04-10T09:01:08Z</time>
      </trkpt>
      <trkpt lat="44.42473" lon="1.04566">
        <ele>240.947632</ele>
        <time>2011-04-10T09:01:11Z</time>
      </trkpt>
      <trkpt lat="44.42414" lon="1.04561">
        <ele>239.505493</ele>
        <time>2011-04-10T09:01:20Z</time>
      </trkpt>
      <trkpt lat="44.42306" lon="1.04544">
        <ele>239.024902</ele>
        <time>2011-04-10T09:01:36Z</time>
      </trkpt>
      <trkpt lat="44.42223" lon="1.04553">
        <ele>238.544312</ele>
        <time>2011-04-10T09:01:50Z</time>
      </trkpt>
      <trkpt lat="44.42217" lon="1.04555">
        <ele>238.544312</ele>
        <time>2011-04-10T09:01:51Z</time>
      </trkpt>
      <trkpt lat="44.42147" lon="1.04595">
        <ele>237.102295</ele>
        <time>2011-04-10T09:02:05Z</time>
      </trkpt>
      <trkpt lat="44.42143" lon="1.04596">
        <ele>237.102295</ele>
        <time>2011-04-10T09:02:06Z</time>
      </trkpt>
      <trkpt lat="44.42133" lon="1.04597">
        <ele>237.102295</ele>
        <time>2011-04-10T09:02:08Z</time>
      </trkpt>
      <trkpt lat="44.42085" lon="1.04608">
        <ele>238.063599</ele>
        <time>2011-04-10T09:02:21Z</time>
      </trkpt>
      <trkpt lat="44.42044" lon="1.04611">
        <ele>240.947632</ele>
        <time>2011-04-10T09:02:33Z</time>
      </trkpt>
      <trkpt lat="44.42013" lon="1.04603">
        <ele>241.908936</ele>
        <time>2011-04-10T09:02:42Z</time>
      </trkpt>
      <trkpt lat="44.41979" lon="1.04601">
        <ele>243.831543</ele>
        <time>2011-04-10T09:02:52Z</time>
      </trkpt>
      <trkpt lat="44.41939" lon="1.046">
        <ele>245.75415</ele>
        <time>2011-04-10T09:03:05Z</time>
      </trkpt>
      <trkpt lat="44.41911" lon="1.046">
        <ele>246.715454</ele>
        <time>2011-04-10T09:03:14Z</time>
      </trkpt>
      <trkpt lat="44.41868" lon="1.04601">
        <ele>247.196045</ele>
        <time>2011-04-10T09:03:26Z</time>
      </trkpt>
      <trkpt lat="44.41852" lon="1.04602">
        <ele>246.715454</ele>
        <time>2011-04-10T09:03:30Z</time>
      </trkpt>
      <trkpt lat="44.41838" lon="1.04604">
        <ele>246.715454</ele>
        <time>2011-04-10T09:03:33Z</time>
      </trkpt>
      <trkpt lat="44.41816" lon="1.04607">
        <ele>246.234863</ele>
        <time>2011-04-10T09:03:37Z</time>
      </trkpt>
      <trkpt lat="44.41774" lon="1.04616">
        <ele>244.792847</ele>
        <time>2011-04-10T09:03:44Z</time>
      </trkpt>
      <trkpt lat="44.41738" lon="1.04617">
        <ele>241.428223</ele>
        <time>2011-04-10T09:03:50Z</time>
      </trkpt>
      <trkpt lat="44.41676" lon="1.04627">
        <ele>233.737671</ele>
        <time>2011-04-10T09:04:01Z</time>
      </trkpt>
      <trkpt lat="44.4164" lon="1.04633">
        <ele>227.489136</ele>
        <time>2011-04-10T09:04:09Z</time>
      </trkpt>
      <trkpt lat="44.41621" lon="1.04637">
        <ele>224.605225</ele>
        <time>2011-04-10T09:04:15Z</time>
      </trkpt>
      <trkpt lat="44.41609" lon="1.04619">
        <ele>219.317993</ele>
        <time>2011-04-10T09:04:22Z</time>
      </trkpt>
      <trkpt lat="44.41617" lon="1.04598">
        <ele>217.875977</ele>
        <time>2011-04-10T09:04:27Z</time>
      </trkpt>
      <trkpt lat="44.41635" lon="1.04549">
        <ele>214.991943</ele>
        <time>2011-04-10T09:04:34Z</time>
      </trkpt>
      <trkpt lat="44.41659" lon="1.04498">
        <ele>213.550049</ele>
        <time>2011-04-10T09:04:41Z</time>
      </trkpt>
      <trkpt lat="44.41676" lon="1.04443">
        <ele>217.395386</ele>
        <time>2011-04-10T09:04:51Z</time>
      </trkpt>
      <trkpt lat="44.41696" lon="1.04411">
        <ele>216.914673</ele>
        <time>2011-04-10T09:05:00Z</time>
      </trkpt>
      <trkpt lat="44.41717" lon="1.04382">
        <ele>215.953247</ele>
        <time>2011-04-10T09:05:09Z</time>
      </trkpt>
      <trkpt lat="44.41735" lon="1.04352">
        <ele>216.914673</ele>
        <time>2011-04-10T09:05:21Z</time>
      </trkpt>
      <trkpt lat="44.41737" lon="1.04324">
        <ele>219.798584</ele>
        <time>2011-04-10T09:05:32Z</time>
      </trkpt>
      <trkpt lat="44.4174" lon="1.04317">
        <ele>221.721191</ele>
        <time>2011-04-10T09:05:36Z</time>
      </trkpt>
      <trkpt lat="44.41748" lon="1.04301">
        <ele>221.240601</ele>
        <time>2011-04-10T09:05:45Z</time>
      </trkpt>
      <trkpt lat="44.4175" lon="1.04289">
        <ele>220.759888</ele>
        <time>2011-04-10T09:05:51Z</time>
      </trkpt>
      <trkpt lat="44.41751" lon="1.0428">
        <ele>222.201782</ele>
        <time>2011-04-10T09:05:55Z</time>
      </trkpt>
      <trkpt lat="44.41748" lon="1.04271">
        <ele>224.124512</ele>
        <time>2011-04-10T09:06:00Z</time>
      </trkpt>
      <trkpt lat="44.41743" lon="1.04264">
        <ele>226.527832</ele>
        <time>2011-04-10T09:06:06Z</time>
      </trkpt>
      <trkpt lat="44.41741" lon="1.04262">
        <ele>226.527832</ele>
        <time>2011-04-10T09:06:08Z</time>
      </trkpt>
      <trkpt lat="44.41736" lon="1.04248">
        <ele>227.489136</ele>
        <time>2011-04-10T09:06:17Z</time>
      </trkpt>
      <trkpt lat="44.4174" lon="1.04225">
        <ele>227.489136</ele>
        <time>2011-04-10T09:06:29Z</time>
      </trkpt>
      <trkpt lat="44.41746" lon="1.04213">
        <ele>227.489136</ele>
        <time>2011-04-10T09:06:36Z</time>
      </trkpt>
      <trkpt lat="44.41761" lon="1.0419">
        <ele>224.605225</ele>
        <time>2011-04-10T09:06:47Z</time>
      </trkpt>
      <trkpt lat="44.41778" lon="1.04163">
        <ele>221.240601</ele>
        <time>2011-04-10T09:06:58Z</time>
      </trkpt>
      <trkpt lat="44.41787" lon="1.04148">
        <ele>220.279175</ele>
        <time>2011-04-10T09:07:04Z</time>
      </trkpt>
      <trkpt lat="44.41808" lon="1.04113">
        <ele>218.356567</ele>
        <time>2011-04-10T09:07:15Z</time>
      </trkpt>
      <trkpt lat="44.41824" lon="1.04086">
        <ele>218.356567</ele>
        <time>2011-04-10T09:07:26Z</time>
      </trkpt>
      <trkpt lat="44.41834" lon="1.04064">
        <ele>220.759888</ele>
        <time>2011-04-10T09:07:37Z</time>
      </trkpt>
      <trkpt lat="44.41845" lon="1.04045">
        <ele>221.721191</ele>
        <time>2011-04-10T09:07:47Z</time>
      </trkpt>
      <trkpt lat="44.41849" lon="1.04039">
        <ele>221.721191</ele>
        <time>2011-04-10T09:07:50Z</time>
      </trkpt>
      <trkpt lat="44.4186" lon="1.04023">
        <ele>223.163208</ele>
        <time>2011-04-10T09:08:00Z</time>
      </trkpt>
      <trkpt lat="44.41873" lon="1.04004">
        <ele>225.566528</ele>
        <time>2011-04-10T09:08:10Z</time>
      </trkpt>
      <trkpt lat="44.41877" lon="1.03998">
        <ele>226.047119</ele>
        <time>2011-04-10T09:08:13Z</time>
      </trkpt>
      <trkpt lat="44.41895" lon="1.03974">
        <ele>226.047119</ele>
        <time>2011-04-10T09:08:28Z</time>
      </trkpt>
      <trkpt lat="44.41907" lon="1.03956">
        <ele>227.008545</ele>
        <time>2011-04-10T09:08:40Z</time>
      </trkpt>
      <trkpt lat="44.41921" lon="1.03941">
        <ele>226.527832</ele>
        <time>2011-04-10T09:08:50Z</time>
      </trkpt>
      <trkpt lat="44.41939" lon="1.03915">
        <ele>226.047119</ele>
        <time>2011-04-10T09:09:03Z</time>
      </trkpt>
      <trkpt lat="44.41955" lon="1.03894">
        <ele>224.124512</ele>
        <time>2011-04-10T09:09:13Z</time>
      </trkpt>
      <trkpt lat="44.41977" lon="1.03862">
        <ele>224.124512</ele>
        <time>2011-04-10T09:09:25Z</time>
      </trkpt>
      <trkpt lat="44.41974" lon="1.03853">
        <ele>227.008545</ele>
        <time>2011-04-10T09:09:30Z</time>
      </trkpt>
      <trkpt lat="44.41967" lon="1.03854">
        <ele>227.969727</ele>
        <time>2011-04-10T09:09:34Z</time>
      </trkpt>
      <trkpt lat="44.41947" lon="1.03833">
        <ele>229.411743</ele>
        <time>2011-04-10T09:09:43Z</time>
      </trkpt>
      <trkpt lat="44.41932" lon="1.03818">
        <ele>229.411743</ele>
        <time>2011-04-10T09:09:47Z</time>
      </trkpt>
      <trkpt lat="44.41897" lon="1.03781">
        <ele>227.008545</ele>
        <time>2011-04-10T09:09:54Z</time>
      </trkpt>
      <trkpt lat="44.4188" lon="1.03745">
        <ele>224.124512</ele>
        <time>2011-04-10T09:09:59Z</time>
      </trkpt>
      <trkpt lat="44.4185" lon="1.03708">
        <ele>218.83728</ele>
        <time>2011-04-10T09:10:06Z</time>
      </trkpt>
      <trkpt lat="44.41827" lon="1.03682">
        <ele>215.472656</ele>
        <time>2011-04-10T09:10:11Z</time>
      </trkpt>
      <trkpt lat="44.41821" lon="1.03672">
        <ele>214.03064</ele>
        <time>2011-04-10T09:10:13Z</time>
      </trkpt>
      <trkpt lat="44.41815" lon="1.03652">
        <ele>211.146729</ele>
        <time>2011-04-10T09:10:16Z</time>
      </trkpt>
      <trkpt lat="44.41807" lon="1.03622">
        <ele>206.340088</ele>
        <time>2011-04-10T09:10:20Z</time>
      </trkpt>
      <trkpt lat="44.418" lon="1.03611">
        <ele>203.456177</ele>
        <time>2011-04-10T09:10:22Z</time>
      </trkpt>
      <trkpt lat="44.41778" lon="1.03588">
        <ele>197.688232</ele>
        <time>2011-04-10T09:10:27Z</time>
      </trkpt>
      <trkpt lat="44.41758" lon="1.03582">
        <ele>195.765625</ele>
        <time>2011-04-10T09:10:30Z</time>
      </trkpt>
      <trkpt lat="44.41738" lon="1.0358">
        <ele>194.804321</ele>
        <time>2011-04-10T09:10:33Z</time>
      </trkpt>
      <trkpt lat="44.41712" lon="1.03568">
        <ele>193.843018</ele>
        <time>2011-04-10T09:10:37Z</time>
      </trkpt>
      <trkpt lat="44.41688" lon="1.03548">
        <ele>191.920288</ele>
        <time>2011-04-10T09:10:41Z</time>
      </trkpt>
      <trkpt lat="44.41676" lon="1.0354">
        <ele>190.958984</ele>
        <time>2011-04-10T09:10:43Z</time>
      </trkpt>
      <trkpt lat="44.41652" lon="1.03534">
        <ele>189.516968</ele>
        <time>2011-04-10T09:10:47Z</time>
      </trkpt>
      <trkpt lat="44.4163" lon="1.03531">
        <ele>188.555786</ele>
        <time>2011-04-10T09:10:50Z</time>
      </trkpt>
      <trkpt lat="44.41592" lon="1.0352">
        <ele>186.633179</ele>
        <time>2011-04-10T09:10:55Z</time>
      </trkpt>
      <trkpt lat="44.41566" lon="1.03493">
        <ele>184.229858</ele>
        <time>2011-04-10T09:11:02Z</time>
      </trkpt>
      <trkpt lat="44.41561" lon="1.03477">
        <ele>182.787842</ele>
        <time>2011-04-10T09:11:05Z</time>
      </trkpt>
      <trkpt lat="44.41531" lon="1.03448">
        <ele>179.903809</ele>
        <time>2011-04-10T09:11:12Z</time>
      </trkpt>
      <trkpt lat="44.41514" lon="1.0343">
        <ele>178.942627</ele>
        <time>2011-04-10T09:11:17Z</time>
      </trkpt>
      <trkpt lat="44.4148" lon="1.03401">
        <ele>177.02002</ele>
        <time>2011-04-10T09:11:27Z</time>
      </trkpt>
      <trkpt lat="44.41473" lon="1.03397">
        <ele>176.539307</ele>
        <time>2011-04-10T09:11:29Z</time>
      </trkpt>
      <trkpt lat="44.41436" lon="1.03386">
        <ele>181.826416</ele>
        <time>2011-04-10T09:11:38Z</time>
      </trkpt>
      <trkpt lat="44.41408" lon="1.03393">
        <ele>185.671753</ele>
        <time>2011-04-10T09:11:45Z</time>
      </trkpt>
      <trkpt lat="44.41388" lon="1.0342">
        <ele>191.439575</ele>
        <time>2011-04-10T09:11:53Z</time>
      </trkpt>
      <trkpt lat="44.41386" lon="1.03423">
        <ele>191.920288</ele>
        <time>2011-04-10T09:11:54Z</time>
      </trkpt>
      <trkpt lat="44.41361" lon="1.03445">
        <ele>197.20752</ele>
        <time>2011-04-10T09:12:02Z</time>
      </trkpt>
      <trkpt lat="44.41338" lon="1.03448">
        <ele>199.130127</ele>
        <time>2011-04-10T09:12:07Z</time>
      </trkpt>
      <trkpt lat="44.41325" lon="1.03443">
        <ele>200.091675</ele>
        <time>2011-04-10T09:12:10Z</time>
      </trkpt>
      <trkpt lat="44.41303" lon="1.03404">
        <ele>198.649536</ele>
        <time>2011-04-10T09:12:19Z</time>
      </trkpt>
      <trkpt lat="44.41301" lon="1.03377">
        <ele>194.804321</ele>
        <time>2011-04-10T09:12:26Z</time>
      </trkpt>
      <trkpt lat="44.41296" lon="1.03347">
        <ele>189.997681</ele>
        <time>2011-04-10T09:12:37Z</time>
      </trkpt>
      <trkpt lat="44.41295" lon="1.0334">
        <ele>189.036377</ele>
        <time>2011-04-10T09:12:39Z</time>
      </trkpt>
      <trkpt lat="44.41295" lon="1.03335">
        <ele>188.555786</ele>
        <time>2011-04-10T09:12:41Z</time>
      </trkpt>
      <trkpt lat="44.41295" lon="1.03325">
        <ele>186.633179</ele>
        <time>2011-04-10T09:12:44Z</time>
      </trkpt>
      <trkpt lat="44.41296" lon="1.0332">
        <ele>185.191162</ele>
        <time>2011-04-10T09:12:46Z</time>
      </trkpt>
      <trkpt lat="44.41293" lon="1.03308">
        <ele>183.749023</ele>
        <time>2011-04-10T09:12:50Z</time>
      </trkpt>
      <trkpt lat="44.41281" lon="1.03276">
        <ele>179.423218</ele>
        <time>2011-04-10T09:12:58Z</time>
      </trkpt>
      <trkpt lat="44.4125" lon="1.03253">
        <ele>177.02002</ele>
        <time>2011-04-10T09:13:06Z</time>
      </trkpt>
      <trkpt lat="44.4124" lon="1.03255">
        <ele>178.461914</ele>
        <time>2011-04-10T09:13:10Z</time>
      </trkpt>
      <trkpt lat="44.41235" lon="1.03252">
        <ele>179.423218</ele>
        <time>2011-04-10T09:13:13Z</time>
      </trkpt>
      <trkpt lat="44.41222" lon="1.0323">
        <ele>180.384521</ele>
        <time>2011-04-10T09:13:21Z</time>
      </trkpt>
      <trkpt lat="44.41207" lon="1.03223">
        <ele>181.345825</ele>
        <time>2011-04-10T09:13:26Z</time>
      </trkpt>
      <trkpt lat="44.41193" lon="1.03212">
        <ele>179.903809</ele>
        <time>2011-04-10T09:13:33Z</time>
      </trkpt>
      <trkpt lat="44.41187" lon="1.0321">
        <ele>179.423218</ele>
        <time>2011-04-10T09:13:35Z</time>
      </trkpt>
      <trkpt lat="44.41177" lon="1.03205">
        <ele>179.423218</ele>
        <time>2011-04-10T09:13:39Z</time>
      </trkpt>
      <trkpt lat="44.41156" lon="1.03194">
        <ele>178.942627</ele>
        <time>2011-04-10T09:13:47Z</time>
      </trkpt>
      <trkpt lat="44.4114" lon="1.0318">
        <ele>178.461914</ele>
        <time>2011-04-10T09:13:54Z</time>
      </trkpt>
      <trkpt lat="44.41141" lon="1.03162">
        <ele>176.058594</ele>
        <time>2011-04-10T09:14:01Z</time>
      </trkpt>
      <trkpt lat="44.41147" lon="1.03147">
        <ele>173.174683</ele>
        <time>2011-04-10T09:14:07Z</time>
      </trkpt>
      <trkpt lat="44.41156" lon="1.03137">
        <ele>170.771362</ele>
        <time>2011-04-10T09:14:12Z</time>
      </trkpt>
      <trkpt lat="44.41172" lon="1.03121">
        <ele>167.406738</ele>
        <time>2011-04-10T09:14:20Z</time>
      </trkpt>
      <trkpt lat="44.41186" lon="1.03107">
        <ele>166.445313</ele>
        <time>2011-04-10T09:14:28Z</time>
      </trkpt>
      <trkpt lat="44.41196" lon="1.03094">
        <ele>165.003418</ele>
        <time>2011-04-10T09:14:33Z</time>
      </trkpt>
      <trkpt lat="44.41207" lon="1.03084">
        <ele>162.600098</ele>
        <time>2011-04-10T09:14:38Z</time>
      </trkpt>
      <trkpt lat="44.41219" lon="1.03069">
        <ele>159.716187</ele>
        <time>2011-04-10T09:14:45Z</time>
      </trkpt>
      <trkpt lat="44.4123" lon="1.03059">
        <ele>155.870972</ele>
        <time>2011-04-10T09:14:49Z</time>
      </trkpt>
      <trkpt lat="44.41246" lon="1.03044">
        <ele>149.141602</ele>
        <time>2011-04-10T09:14:57Z</time>
      </trkpt>
      <trkpt lat="44.41261" lon="1.03029">
        <ele>145.296387</ele>
        <time>2011-04-10T09:15:03Z</time>
      </trkpt>
      <trkpt lat="44.41269" lon="1.03013">
        <ele>142.893066</ele>
        <time>2011-04-10T09:15:08Z</time>
      </trkpt>
      <trkpt lat="44.41288" lon="1.02985">
        <ele>140.009155</ele>
        <time>2011-04-10T09:15:17Z</time>
      </trkpt>
      <trkpt lat="44.41293" lon="1.02946">
        <ele>138.567261</ele>
        <time>2011-04-10T09:15:26Z</time>
      </trkpt>
      <trkpt lat="44.41294" lon="1.02906">
        <ele>137.605835</ele>
        <time>2011-04-10T09:15:34Z</time>
      </trkpt>
      <trkpt lat="44.41291" lon="1.02877">
        <ele>136.16394</ele>
        <time>2011-04-10T09:15:39Z</time>
      </trkpt>
      <trkpt lat="44.41277" lon="1.02834">
        <ele>128.954102</ele>
        <time>2011-04-10T09:15:50Z</time>
      </trkpt>
      <trkpt lat="44.4125" lon="1.02798">
        <ele>129.915283</ele>
        <time>2011-04-10T09:16:00Z</time>
      </trkpt>
      <trkpt lat="44.41226" lon="1.02776">
        <ele>133.279907</ele>
        <time>2011-04-10T09:16:09Z</time>
      </trkpt>
      <trkpt lat="44.41223" lon="1.0277">
        <ele>134.721924</ele>
        <time>2011-04-10T09:16:11Z</time>
      </trkpt>
      <trkpt lat="44.41211" lon="1.02754">
        <ele>138.086548</ele>
        <time>2011-04-10T09:16:18Z</time>
      </trkpt>
      <trkpt lat="44.41201" lon="1.02741">
        <ele>141.45105</ele>
        <time>2011-04-10T09:16:23Z</time>
      </trkpt>
      <trkpt lat="44.4119" lon="1.0273">
        <ele>143.85437</ele>
        <time>2011-04-10T09:16:28Z</time>
      </trkpt>
      <trkpt lat="44.41187" lon="1.02698">
        <ele>147.699707</ele>
        <time>2011-04-10T09:16:36Z</time>
      </trkpt>
      <trkpt lat="44.41196" lon="1.02654">
        <ele>148.661011</ele>
        <time>2011-04-10T09:16:46Z</time>
      </trkpt>
      <trkpt lat="44.41213" lon="1.02613">
        <ele>145.296387</ele>
        <time>2011-04-10T09:16:55Z</time>
      </trkpt>
      <trkpt lat="44.41219" lon="1.02572">
        <ele>144.815796</ele>
        <time>2011-04-10T09:17:02Z</time>
      </trkpt>
      <trkpt lat="44.4122" lon="1.02546">
        <ele>145.7771</ele>
        <time>2011-04-10T09:17:06Z</time>
      </trkpt>
      <trkpt lat="44.41216" lon="1.02522">
        <ele>145.7771</ele>
        <time>2011-04-10T09:17:10Z</time>
      </trkpt>
      <trkpt lat="44.41214" lon="1.02503">
        <ele>145.296387</ele>
        <time>2011-04-10T09:17:13Z</time>
      </trkpt>
      <trkpt lat="44.41205" lon="1.0246">
        <ele>145.296387</ele>
        <time>2011-04-10T09:17:21Z</time>
      </trkpt>
      <trkpt lat="44.41199" lon="1.0242">
        <ele>149.141602</ele>
        <time>2011-04-10T09:17:31Z</time>
      </trkpt>
      <trkpt lat="44.41195" lon="1.02403">
        <ele>159.235474</ele>
        <time>2011-04-10T09:17:49Z</time>
      </trkpt>
      <trkpt lat="44.41193" lon="1.0239">
        <ele>162.119507</ele>
        <time>2011-04-10T09:18:00Z</time>
      </trkpt>
      <trkpt lat="44.41193" lon="1.02386">
        <ele>163.080811</ele>
        <time>2011-04-10T09:18:02Z</time>
      </trkpt>
      <trkpt lat="44.41204" lon="1.02374">
        <ele>167.887329</ele>
        <time>2011-04-10T09:18:14Z</time>
      </trkpt>
      <trkpt lat="44.41218" lon="1.02367">
        <ele>171.252075</ele>
        <time>2011-04-10T09:18:27Z</time>
      </trkpt>
      <trkpt lat="44.41223" lon="1.02365">
        <ele>172.213257</ele>
        <time>2011-04-10T09:18:32Z</time>
      </trkpt>
      <trkpt lat="44.41228" lon="1.02343">
        <ele>171.732666</ele>
        <time>2011-04-10T09:18:42Z</time>
      </trkpt>
      <trkpt lat="44.4123" lon="1.02333">
        <ele>170.771362</ele>
        <time>2011-04-10T09:18:44Z</time>
      </trkpt>
      <trkpt lat="44.41239" lon="1.02305">
        <ele>167.887329</ele>
        <time>2011-04-10T09:18:48Z</time>
      </trkpt>
      <trkpt lat="44.4126" lon="1.02259">
        <ele>163.561523</ele>
        <time>2011-04-10T09:18:54Z</time>
      </trkpt>
      <trkpt lat="44.41267" lon="1.02246">
        <ele>161.638916</ele>
        <time>2011-04-10T09:18:56Z</time>
      </trkpt>
      <trkpt lat="44.41295" lon="1.02203">
        <ele>156.351563</ele>
        <time>2011-04-10T09:19:03Z</time>
      </trkpt>
      <trkpt lat="44.413" lon="1.0216">
        <ele>154.909546</ele>
        <time>2011-04-10T09:19:09Z</time>
      </trkpt>
      <trkpt lat="44.41298" lon="1.02111">
        <ele>156.351563</ele>
        <time>2011-04-10T09:19:18Z</time>
      </trkpt>
      <trkpt lat="44.41319" lon="1.02071">
        <ele>158.754761</ele>
        <time>2011-04-10T09:19:30Z</time>
      </trkpt>
      <trkpt lat="44.41328" lon="1.02055">
        <ele>158.27417</ele>
        <time>2011-04-10T09:19:34Z</time>
      </trkpt>
      <trkpt lat="44.41336" lon="1.02042">
        <ele>157.793579</ele>
        <time>2011-04-10T09:19:37Z</time>
      </trkpt>
      <trkpt lat="44.41345" lon="1.02009">
        <ele>160.196899</ele>
        <time>2011-04-10T09:19:47Z</time>
      </trkpt>
      <trkpt lat="44.41345" lon="1.02002">
        <ele>161.638916</ele>
        <time>2011-04-10T09:19:50Z</time>
      </trkpt>
      <trkpt lat="44.41349" lon="1.01989">
        <ele>165.964722</ele>
        <time>2011-04-10T09:19:57Z</time>
      </trkpt>
      <trkpt lat="44.41353" lon="1.01964">
        <ele>172.213257</ele>
        <time>2011-04-10T09:20:08Z</time>
      </trkpt>
      <trkpt lat="44.41356" lon="1.01958">
        <ele>173.655273</ele>
        <time>2011-04-10T09:20:11Z</time>
      </trkpt>
      <trkpt lat="44.41362" lon="1.0194">
        <ele>175.09729</ele>
        <time>2011-04-10T09:20:19Z</time>
      </trkpt>
      <trkpt lat="44.41362" lon="1.01935">
        <ele>175.09729</ele>
        <time>2011-04-10T09:20:22Z</time>
      </trkpt>
      <trkpt lat="44.41362" lon="1.01927">
        <ele>175.577881</ele>
        <time>2011-04-10T09:20:26Z</time>
      </trkpt>
      <trkpt lat="44.41362" lon="1.01923">
        <ele>175.577881</ele>
        <time>2011-04-10T09:20:28Z</time>
      </trkpt>
      <trkpt lat="44.41362" lon="1.01915">
        <ele>175.577881</ele>
        <time>2011-04-10T09:20:31Z</time>
      </trkpt>
      <trkpt lat="44.41361" lon="1.01909">
        <ele>175.577881</ele>
        <time>2011-04-10T09:20:34Z</time>
      </trkpt>
      <trkpt lat="44.41361" lon="1.01902">
        <ele>176.058594</ele>
        <time>2011-04-10T09:20:37Z</time>
      </trkpt>
      <trkpt lat="44.41351" lon="1.01878">
        <ele>174.616577</ele>
        <time>2011-04-10T09:20:48Z</time>
      </trkpt>
      <trkpt lat="44.41336" lon="1.01851">
        <ele>171.252075</ele>
        <time>2011-04-10T09:20:56Z</time>
      </trkpt>
      <trkpt lat="44.41331" lon="1.01822">
        <ele>167.887329</ele>
        <time>2011-04-10T09:21:01Z</time>
      </trkpt>
      <trkpt lat="44.41334" lon="1.01798">
        <ele>165.484131</ele>
        <time>2011-04-10T09:21:05Z</time>
      </trkpt>
      <trkpt lat="44.41346" lon="1.01762">
        <ele>159.716187</ele>
        <time>2011-04-10T09:21:13Z</time>
      </trkpt>
      <trkpt lat="44.41359" lon="1.01754">
        <ele>156.832153</ele>
        <time>2011-04-10T09:21:17Z</time>
      </trkpt>
      <trkpt lat="44.41384" lon="1.01766">
        <ele>152.025757</ele>
        <time>2011-04-10T09:21:23Z</time>
      </trkpt>
      <trkpt lat="44.41423" lon="1.01782">
        <ele>150.103027</ele>
        <time>2011-04-10T09:21:32Z</time>
      </trkpt>
      <trkpt lat="44.41427" lon="1.01772">
        <ele>151.544922</ele>
        <time>2011-04-10T09:21:36Z</time>
      </trkpt>
      <trkpt lat="44.41432" lon="1.01749">
        <ele>153.948364</ele>
        <time>2011-04-10T09:21:43Z</time>
      </trkpt>
      <trkpt lat="44.41439" lon="1.01738">
        <ele>155.390259</ele>
        <time>2011-04-10T09:21:48Z</time>
      </trkpt>
      <trkpt lat="44.41449" lon="1.0173">
        <ele>158.27417</ele>
        <time>2011-04-10T09:21:54Z</time>
      </trkpt>
      <trkpt lat="44.41455" lon="1.0173">
        <ele>160.196899</ele>
        <time>2011-04-10T09:21:58Z</time>
      </trkpt>
      <trkpt lat="44.41465" lon="1.01737">
        <ele>164.042114</ele>
        <time>2011-04-10T09:22:07Z</time>
      </trkpt>
      <trkpt lat="44.41471" lon="1.01751">
        <ele>167.887329</ele>
        <time>2011-04-10T09:22:18Z</time>
      </trkpt>
      <trkpt lat="44.41477" lon="1.01757">
        <ele>169.810059</ele>
        <time>2011-04-10T09:22:26Z</time>
      </trkpt>
      <trkpt lat="44.41481" lon="1.01764">
        <ele>170.771362</ele>
        <time>2011-04-10T09:22:31Z</time>
      </trkpt>
      <trkpt lat="44.41493" lon="1.01775">
        <ele>175.09729</ele>
        <time>2011-04-10T09:22:43Z</time>
      </trkpt>
      <trkpt lat="44.41511" lon="1.01786">
        <ele>180.384521</ele>
        <time>2011-04-10T09:22:59Z</time>
      </trkpt>
      <trkpt lat="44.41526" lon="1.01798">
        <ele>182.307129</ele>
        <time>2011-04-10T09:23:12Z</time>
      </trkpt>
      <trkpt lat="44.41527" lon="1.01799">
        <ele>182.307129</ele>
        <time>2011-04-10T09:23:13Z</time>
      </trkpt>
      <trkpt lat="44.41546" lon="1.01808">
        <ele>183.268433</ele>
        <time>2011-04-10T09:23:25Z</time>
      </trkpt>
      <trkpt lat="44.4155" lon="1.01809">
        <ele>183.749023</ele>
        <time>2011-04-10T09:23:27Z</time>
      </trkpt>
      <trkpt lat="44.41577" lon="1.01815">
        <ele>183.749023</ele>
        <time>2011-04-10T09:23:40Z</time>
      </trkpt>
      <trkpt lat="44.4161" lon="1.01825">
        <ele>184.229858</ele>
        <time>2011-04-10T09:23:52Z</time>
      </trkpt>
      <trkpt lat="44.41639" lon="1.01834">
        <ele>186.152466</ele>
        <time>2011-04-10T09:24:02Z</time>
      </trkpt>
      <trkpt lat="44.41668" lon="1.01832">
        <ele>188.555786</ele>
        <time>2011-04-10T09:24:13Z</time>
      </trkpt>
      <trkpt lat="44.41689" lon="1.0183">
        <ele>190.958984</ele>
        <time>2011-04-10T09:24:23Z</time>
      </trkpt>
      <trkpt lat="44.41707" lon="1.01863">
        <ele>191.439575</ele>
        <time>2011-04-10T09:24:34Z</time>
      </trkpt>
      <trkpt lat="44.41724" lon="1.01893">
        <ele>192.401123</ele>
        <time>2011-04-10T09:24:44Z</time>
      </trkpt>
      <trkpt lat="44.41737" lon="1.01917">
        <ele>195.765625</ele>
        <time>2011-04-10T09:24:57Z</time>
      </trkpt>
      <trkpt lat="44.41741" lon="1.01923">
        <ele>197.20752</ele>
        <time>2011-04-10T09:25:01Z</time>
      </trkpt>
      <trkpt lat="44.41744" lon="1.01933">
        <ele>199.130127</ele>
        <time>2011-04-10T09:25:06Z</time>
      </trkpt>
      <trkpt lat="44.41745" lon="1.01952">
        <ele>202.494873</ele>
        <time>2011-04-10T09:25:15Z</time>
      </trkpt>
      <trkpt lat="44.41753" lon="1.01976">
        <ele>205.859497</ele>
        <time>2011-04-10T09:25:27Z</time>
      </trkpt>
      <trkpt lat="44.41757" lon="1.01992">
        <ele>207.301392</ele>
        <time>2011-04-10T09:25:36Z</time>
      </trkpt>
      <trkpt lat="44.4176" lon="1.02001">
        <ele>206.820679</ele>
        <time>2011-04-10T09:25:41Z</time>
      </trkpt>
      <trkpt lat="44.41766" lon="1.02008">
        <ele>207.782104</ele>
        <time>2011-04-10T09:25:46Z</time>
      </trkpt>
      <trkpt lat="44.41778" lon="1.02023">
        <ele>209.224121</ele>
        <time>2011-04-10T09:25:58Z</time>
      </trkpt>
      <trkpt lat="44.4178" lon="1.02026">
        <ele>209.224121</ele>
        <time>2011-04-10T09:26:00Z</time>
      </trkpt>
      <trkpt lat="44.41795" lon="1.02038">
        <ele>208.262817</ele>
        <time>2011-04-10T09:26:11Z</time>
      </trkpt>
      <trkpt lat="44.41802" lon="1.02048">
        <ele>207.782104</ele>
        <time>2011-04-10T09:26:16Z</time>
      </trkpt>
      <trkpt lat="44.41817" lon="1.02078">
        <ele>210.185425</ele>
        <time>2011-04-10T09:26:31Z</time>
      </trkpt>
      <trkpt lat="44.41821" lon="1.02088">
        <ele>210.666016</ele>
        <time>2011-04-10T09:26:36Z</time>
      </trkpt>
      <trkpt lat="44.41828" lon="1.02103">
        <ele>212.588623</ele>
        <time>2011-04-10T09:26:43Z</time>
      </trkpt>
      <trkpt lat="44.41834" lon="1.02112">
        <ele>215.472656</ele>
        <time>2011-04-10T09:26:48Z</time>
      </trkpt>
      <trkpt lat="44.41847" lon="1.02135">
        <ele>219.798584</ele>
        <time>2011-04-10T09:26:57Z</time>
      </trkpt>
      <trkpt lat="44.41853" lon="1.02144">
        <ele>221.240601</ele>
        <time>2011-04-10T09:27:00Z</time>
      </trkpt>
      <trkpt lat="44.41859" lon="1.02155">
        <ele>222.201782</ele>
        <time>2011-04-10T09:27:04Z</time>
      </trkpt>
      <trkpt lat="44.41879" lon="1.0219">
        <ele>225.566528</ele>
        <time>2011-04-10T09:27:18Z</time>
      </trkpt>
      <trkpt lat="44.41881" lon="1.02193">
        <ele>226.047119</ele>
        <time>2011-04-10T09:27:20Z</time>
      </trkpt>
      <trkpt lat="44.41889" lon="1.02208">
        <ele>226.047119</ele>
        <time>2011-04-10T09:27:27Z</time>
      </trkpt>
      <trkpt lat="44.41905" lon="1.02236">
        <ele>227.489136</ele>
        <time>2011-04-10T09:27:41Z</time>
      </trkpt>
      <trkpt lat="44.41919" lon="1.02258">
        <ele>227.008545</ele>
        <time>2011-04-10T09:27:53Z</time>
      </trkpt>
      <trkpt lat="44.41927" lon="1.02271">
        <ele>227.008545</ele>
        <time>2011-04-10T09:28:01Z</time>
      </trkpt>
      <trkpt lat="44.41937" lon="1.02291">
        <ele>227.969727</ele>
        <time>2011-04-10T09:28:12Z</time>
      </trkpt>
      <trkpt lat="44.41945" lon="1.02304">
        <ele>228.931152</ele>
        <time>2011-04-10T09:28:19Z</time>
      </trkpt>
      <trkpt lat="44.41958" lon="1.02329">
        <ele>230.85376</ele>
        <time>2011-04-10T09:28:30Z</time>
      </trkpt>
      <trkpt lat="44.41977" lon="1.02361">
        <ele>229.892334</ele>
        <time>2011-04-10T09:28:42Z</time>
      </trkpt>
      <trkpt lat="44.41993" lon="1.02384">
        <ele>227.969727</ele>
        <time>2011-04-10T09:28:53Z</time>
      </trkpt>
      <trkpt lat="44.4201" lon="1.02408">
        <ele>228.931152</ele>
        <time>2011-04-10T09:29:07Z</time>
      </trkpt>
      <trkpt lat="44.42018" lon="1.02421">
        <ele>228.450439</ele>
        <time>2011-04-10T09:29:15Z</time>
      </trkpt>
      <trkpt lat="44.42028" lon="1.02439">
        <ele>228.450439</ele>
        <time>2011-04-10T09:29:27Z</time>
      </trkpt>
      <trkpt lat="44.42036" lon="1.02452">
        <ele>229.892334</ele>
        <time>2011-04-10T09:29:36Z</time>
      </trkpt>
      <trkpt lat="44.42054" lon="1.0245">
        <ele>228.450439</ele>
        <time>2011-04-10T09:29:48Z</time>
      </trkpt>
      <trkpt lat="44.42058" lon="1.02443">
        <ele>227.969727</ele>
        <time>2011-04-10T09:29:51Z</time>
      </trkpt>
      <trkpt lat="44.42089" lon="1.02391">
        <ele>221.240601</ele>
        <time>2011-04-10T09:30:07Z</time>
      </trkpt>
      <trkpt lat="44.42108" lon="1.02378">
        <ele>219.798584</ele>
        <time>2011-04-10T09:30:13Z</time>
      </trkpt>
      <trkpt lat="44.42121" lon="1.02379">
        <ele>218.83728</ele>
        <time>2011-04-10T09:30:16Z</time>
      </trkpt>
      <trkpt lat="44.4213" lon="1.02381">
        <ele>217.875977</ele>
        <time>2011-04-10T09:30:18Z</time>
      </trkpt>
      <trkpt lat="44.42148" lon="1.02387">
        <ele>217.395386</ele>
        <time>2011-04-10T09:30:22Z</time>
      </trkpt>
      <trkpt lat="44.42169" lon="1.02393">
        <ele>216.914673</ele>
        <time>2011-04-10T09:30:27Z</time>
      </trkpt>
      <trkpt lat="44.42194" lon="1.02367">
        <ele>214.991943</ele>
        <time>2011-04-10T09:30:35Z</time>
      </trkpt>
      <trkpt lat="44.42208" lon="1.02316">
        <ele>213.550049</ele>
        <time>2011-04-10T09:30:43Z</time>
      </trkpt>
      <trkpt lat="44.42222" lon="1.02285">
        <ele>212.588623</ele>
        <time>2011-04-10T09:30:48Z</time>
      </trkpt>
      <trkpt lat="44.42237" lon="1.02258">
        <ele>212.108032</ele>
        <time>2011-04-10T09:30:53Z</time>
      </trkpt>
      <trkpt lat="44.42259" lon="1.02224">
        <ele>212.588623</ele>
        <time>2011-04-10T09:31:00Z</time>
      </trkpt>
      <trkpt lat="44.42271" lon="1.0221">
        <ele>211.627441</ele>
        <time>2011-04-10T09:31:03Z</time>
      </trkpt>
      <trkpt lat="44.42287" lon="1.02186">
        <ele>210.666016</ele>
        <time>2011-04-10T09:31:07Z</time>
      </trkpt>
      <trkpt lat="44.42336" lon="1.02112">
        <ele>208.262817</ele>
        <time>2011-04-10T09:31:18Z</time>
      </trkpt>
      <trkpt lat="44.42356" lon="1.02089">
        <ele>207.782104</ele>
        <time>2011-04-10T09:31:22Z</time>
      </trkpt>
      <trkpt lat="44.42403" lon="1.02051">
        <ele>207.301392</ele>
        <time>2011-04-10T09:31:31Z</time>
      </trkpt>
      <trkpt lat="44.4242" lon="1.02046">
        <ele>206.820679</ele>
        <time>2011-04-10T09:31:34Z</time>
      </trkpt>
      <trkpt lat="44.42453" lon="1.02044">
        <ele>206.820679</ele>
        <time>2011-04-10T09:31:40Z</time>
      </trkpt>
      <trkpt lat="44.42467" lon="1.02039">
        <ele>207.301392</ele>
        <time>2011-04-10T09:31:43Z</time>
      </trkpt>
      <trkpt lat="44.42493" lon="1.02018">
        <ele>206.820679</ele>
        <time>2011-04-10T09:31:49Z</time>
      </trkpt>
      <trkpt lat="44.42503" lon="1.02026">
        <ele>206.820679</ele>
        <time>2011-04-10T09:31:53Z</time>
      </trkpt>
      <trkpt lat="44.42524" lon="1.02064">
        <ele>208.262817</ele>
        <time>2011-04-10T09:32:07Z</time>
      </trkpt>
      <trkpt lat="44.42539" lon="1.0209">
        <ele>210.666016</ele>
        <time>2011-04-10T09:32:21Z</time>
      </trkpt>
      <trkpt lat="44.42553" lon="1.02118">
        <ele>213.550049</ele>
        <time>2011-04-10T09:32:35Z</time>
      </trkpt>
      <trkpt lat="44.42562" lon="1.02138">
        <ele>215.472656</ele>
        <time>2011-04-10T09:32:47Z</time>
      </trkpt>
      <trkpt lat="44.42573" lon="1.0217">
        <ele>215.953247</ele>
        <time>2011-04-10T09:33:01Z</time>
      </trkpt>
      <trkpt lat="44.42579" lon="1.02205">
        <ele>217.395386</ele>
        <time>2011-04-10T09:33:14Z</time>
      </trkpt>
      <trkpt lat="44.42584" lon="1.02232">
        <ele>218.83728</ele>
        <time>2011-04-10T09:33:24Z</time>
      </trkpt>
      <trkpt lat="44.42586" lon="1.02237">
        <ele>218.83728</ele>
        <time>2011-04-10T09:33:26Z</time>
      </trkpt>
      <trkpt lat="44.42597" lon="1.02264">
        <ele>219.317993</ele>
        <time>2011-04-10T09:33:36Z</time>
      </trkpt>
      <trkpt lat="44.42615" lon="1.02296">
        <ele>220.759888</ele>
        <time>2011-04-10T09:33:50Z</time>
      </trkpt>
      <trkpt lat="44.42627" lon="1.02324">
        <ele>222.682495</ele>
        <time>2011-04-10T09:34:01Z</time>
      </trkpt>
      <trkpt lat="44.42644" lon="1.02368">
        <ele>223.163208</ele>
        <time>2011-04-10T09:34:16Z</time>
      </trkpt>
      <trkpt lat="44.42658" lon="1.02396">
        <ele>223.163208</ele>
        <time>2011-04-10T09:34:29Z</time>
      </trkpt>
      <trkpt lat="44.42674" lon="1.02429">
        <ele>224.605225</ele>
        <time>2011-04-10T09:34:43Z</time>
      </trkpt>
      <trkpt lat="44.42692" lon="1.02458">
        <ele>225.085938</ele>
        <time>2011-04-10T09:34:58Z</time>
      </trkpt>
      <trkpt lat="44.42707" lon="1.02477">
        <ele>227.008545</ele>
        <time>2011-04-10T09:35:10Z</time>
      </trkpt>
      <trkpt lat="44.42717" lon="1.02488">
        <ele>227.008545</ele>
        <time>2011-04-10T09:35:17Z</time>
      </trkpt>
      <trkpt lat="44.42734" lon="1.02504">
        <ele>228.450439</ele>
        <time>2011-04-10T09:35:30Z</time>
      </trkpt>
      <trkpt lat="44.42751" lon="1.02517">
        <ele>230.373047</ele>
        <time>2011-04-10T09:35:42Z</time>
      </trkpt>
      <trkpt lat="44.42752" lon="1.02519">
        <ele>230.85376</ele>
        <time>2011-04-10T09:35:43Z</time>
      </trkpt>
      <trkpt lat="44.42774" lon="1.02535">
        <ele>233.25708</ele>
        <time>2011-04-10T09:35:55Z</time>
      </trkpt>
      <trkpt lat="44.42776" lon="1.02537">
        <ele>233.737671</ele>
        <time>2011-04-10T09:35:56Z</time>
      </trkpt>
      <trkpt lat="44.42791" lon="1.02548">
        <ele>233.25708</ele>
        <time>2011-04-10T09:36:03Z</time>
      </trkpt>
      <trkpt lat="44.4281" lon="1.0256">
        <ele>233.25708</ele>
        <time>2011-04-10T09:36:12Z</time>
      </trkpt>
      <trkpt lat="44.42816" lon="1.02577">
        <ele>233.25708</ele>
        <time>2011-04-10T09:36:18Z</time>
      </trkpt>
      <trkpt lat="44.42822" lon="1.02647">
        <ele>233.25708</ele>
        <time>2011-04-10T09:36:35Z</time>
      </trkpt>
      <trkpt lat="44.42829" lon="1.02721">
        <ele>234.699097</ele>
        <time>2011-04-10T09:36:52Z</time>
      </trkpt>
      <trkpt lat="44.42834" lon="1.02759">
        <ele>235.179688</ele>
        <time>2011-04-10T09:37:01Z</time>
      </trkpt>
      <trkpt lat="44.42841" lon="1.02778">
        <ele>238.544312</ele>
        <time>2011-04-10T09:37:07Z</time>
      </trkpt>
      <trkpt lat="44.42859" lon="1.02795">
        <ele>240.947632</ele>
        <time>2011-04-10T09:37:18Z</time>
      </trkpt>
      <trkpt lat="44.42877" lon="1.02786">
        <ele>240.947632</ele>
        <time>2011-04-10T09:37:28Z</time>
      </trkpt>
      <trkpt lat="44.42878" lon="1.02785">
        <ele>241.428223</ele>
        <time>2011-04-10T09:37:29Z</time>
      </trkpt>
      <trkpt lat="44.42888" lon="1.02781">
        <ele>241.428223</ele>
        <time>2011-04-10T09:37:34Z</time>
      </trkpt>
      <trkpt lat="44.42917" lon="1.0276">
        <ele>240.467041</ele>
        <time>2011-04-10T09:37:47Z</time>
      </trkpt>
      <trkpt lat="44.42943" lon="1.02745">
        <ele>239.986206</ele>
        <time>2011-04-10T09:37:54Z</time>
      </trkpt>
      <trkpt lat="44.42961" lon="1.0274">
        <ele>240.467041</ele>
        <time>2011-04-10T09:37:58Z</time>
      </trkpt>
      <trkpt lat="44.42992" lon="1.02735">
        <ele>239.986206</ele>
        <time>2011-04-10T09:38:04Z</time>
      </trkpt>
      <trkpt lat="44.43012" lon="1.02734">
        <ele>239.024902</ele>
        <time>2011-04-10T09:38:08Z</time>
      </trkpt>
      <trkpt lat="44.43086" lon="1.02732">
        <ele>237.102295</ele>
        <time>2011-04-10T09:38:24Z</time>
      </trkpt>
      <trkpt lat="44.4309" lon="1.02732">
        <ele>237.102295</ele>
        <time>2011-04-10T09:38:25Z</time>
      </trkpt>
      <trkpt lat="44.43109" lon="1.02729">
        <ele>236.140991</ele>
        <time>2011-04-10T09:38:29Z</time>
      </trkpt>
      <trkpt lat="44.43124" lon="1.02728">
        <ele>235.179688</ele>
        <time>2011-04-10T09:38:32Z</time>
      </trkpt>
      <trkpt lat="44.43162" lon="1.02718">
        <ele>234.218384</ele>
        <time>2011-04-10T09:38:39Z</time>
      </trkpt>
      <trkpt lat="44.43179" lon="1.0271">
        <ele>233.25708</ele>
        <time>2011-04-10T09:38:42Z</time>
      </trkpt>
      <trkpt lat="44.43228" lon="1.02665">
        <ele>229.411743</ele>
        <time>2011-04-10T09:38:50Z</time>
      </trkpt>
      <trkpt lat="44.43258" lon="1.02657">
        <ele>230.373047</ele>
        <time>2011-04-10T09:38:55Z</time>
      </trkpt>
      <trkpt lat="44.43274" lon="1.0266">
        <ele>230.373047</ele>
        <time>2011-04-10T09:38:58Z</time>
      </trkpt>
      <trkpt lat="44.43283" lon="1.02662">
        <ele>230.373047</ele>
        <time>2011-04-10T09:39:00Z</time>
      </trkpt>
      <trkpt lat="44.43296" lon="1.0266">
        <ele>230.373047</ele>
        <time>2011-04-10T09:39:03Z</time>
      </trkpt>
      <trkpt lat="44.43312" lon="1.02668">
        <ele>230.85376</ele>
        <time>2011-04-10T09:39:07Z</time>
      </trkpt>
      <trkpt lat="44.43329" lon="1.02669">
        <ele>230.85376</ele>
        <time>2011-04-10T09:39:11Z</time>
      </trkpt>
      <trkpt lat="44.43337" lon="1.02663">
        <ele>231.334351</ele>
        <time>2011-04-10T09:39:13Z</time>
      </trkpt>
      <trkpt lat="44.43352" lon="1.02649">
        <ele>230.85376</ele>
        <time>2011-04-10T09:39:17Z</time>
      </trkpt>
      <trkpt lat="44.43409" lon="1.02601">
        <ele>231.334351</ele>
        <time>2011-04-10T09:39:35Z</time>
      </trkpt>
      <trkpt lat="44.43446" lon="1.02562">
        <ele>232.295776</ele>
        <time>2011-04-10T09:39:48Z</time>
      </trkpt>
      <trkpt lat="44.43481" lon="1.02535">
        <ele>232.776489</ele>
        <time>2011-04-10T09:39:59Z</time>
      </trkpt>
      <trkpt lat="44.43497" lon="1.02527">
        <ele>232.776489</ele>
        <time>2011-04-10T09:40:04Z</time>
      </trkpt>
      <trkpt lat="44.43508" lon="1.02521">
        <ele>232.295776</ele>
        <time>2011-04-10T09:40:07Z</time>
      </trkpt>
      <trkpt lat="44.43515" lon="1.02515">
        <ele>231.814941</ele>
        <time>2011-04-10T09:40:09Z</time>
      </trkpt>
      <trkpt lat="44.43525" lon="1.02505">
        <ele>231.814941</ele>
        <time>2011-04-10T09:40:12Z</time>
      </trkpt>
      <trkpt lat="44.43556" lon="1.02449">
        <ele>230.373047</ele>
        <time>2011-04-10T09:40:24Z</time>
      </trkpt>
      <trkpt lat="44.43567" lon="1.02429">
        <ele>229.411743</ele>
        <time>2011-04-10T09:40:28Z</time>
      </trkpt>
      <trkpt lat="44.43596" lon="1.02411">
        <ele>228.450439</ele>
        <time>2011-04-10T09:40:36Z</time>
      </trkpt>
      <trkpt lat="44.43608" lon="1.02418">
        <ele>228.931152</ele>
        <time>2011-04-10T09:40:39Z</time>
      </trkpt>
      <trkpt lat="44.43635" lon="1.02401">
        <ele>227.969727</ele>
        <time>2011-04-10T09:40:47Z</time>
      </trkpt>
      <trkpt lat="44.43639" lon="1.02388">
        <ele>227.008545</ele>
        <time>2011-04-10T09:40:49Z</time>
      </trkpt>
      <trkpt lat="44.43644" lon="1.02374">
        <ele>227.008545</ele>
        <time>2011-04-10T09:40:51Z</time>
      </trkpt>
      <trkpt lat="44.43669" lon="1.02286">
        <ele>222.201782</ele>
        <time>2011-04-10T09:41:04Z</time>
      </trkpt>
      <trkpt lat="44.43707" lon="1.02164">
        <ele>218.356567</ele>
        <time>2011-04-10T09:41:18Z</time>
      </trkpt>
      <trkpt lat="44.4371" lon="1.02154">
        <ele>217.875977</ele>
        <time>2011-04-10T09:41:19Z</time>
      </trkpt>
      <trkpt lat="44.43735" lon="1.02116">
        <ele>216.914673</ele>
        <time>2011-04-10T09:41:24Z</time>
      </trkpt>
      <trkpt lat="44.43776" lon="1.02058">
        <ele>216.43396</ele>
        <time>2011-04-10T09:41:33Z</time>
      </trkpt>
      <trkpt lat="44.43837" lon="1.01978">
        <ele>216.43396</ele>
        <time>2011-04-10T09:41:46Z</time>
      </trkpt>
      <trkpt lat="44.43899" lon="1.01919">
        <ele>215.953247</ele>
        <time>2011-04-10T09:41:59Z</time>
      </trkpt>
      <trkpt lat="44.43908" lon="1.01911">
        <ele>216.43396</ele>
        <time>2011-04-10T09:42:01Z</time>
      </trkpt>
      <trkpt lat="44.4396" lon="1.01836">
        <ele>217.395386</ele>
        <time>2011-04-10T09:42:15Z</time>
      </trkpt>
      <trkpt lat="44.44013" lon="1.01765">
        <ele>218.83728</ele>
        <time>2011-04-10T09:42:28Z</time>
      </trkpt>
      <trkpt lat="44.44021" lon="1.01755">
        <ele>219.317993</ele>
        <time>2011-04-10T09:42:30Z</time>
      </trkpt>
      <trkpt lat="44.44053" lon="1.017">
        <ele>217.875977</ele>
        <time>2011-04-10T09:42:39Z</time>
      </trkpt>
      <trkpt lat="44.44094" lon="1.01636">
        <ele>215.953247</ele>
        <time>2011-04-10T09:42:50Z</time>
      </trkpt>
      <trkpt lat="44.4416" lon="1.01571">
        <ele>213.550049</ele>
        <time>2011-04-10T09:43:03Z</time>
      </trkpt>
      <trkpt lat="44.44201" lon="1.01529">
        <ele>214.51123</ele>
        <time>2011-04-10T09:43:12Z</time>
      </trkpt>
      <trkpt lat="44.44228" lon="1.0148">
        <ele>216.43396</ele>
        <time>2011-04-10T09:43:25Z</time>
      </trkpt>
      <trkpt lat="44.44249" lon="1.01445">
        <ele>218.356567</ele>
        <time>2011-04-10T09:43:37Z</time>
      </trkpt>
      <trkpt lat="44.4426" lon="1.01428">
        <ele>218.83728</ele>
        <time>2011-04-10T09:43:44Z</time>
      </trkpt>
      <trkpt lat="44.44249" lon="1.01387">
        <ele>217.395386</ele>
        <time>2011-04-10T09:43:55Z</time>
      </trkpt>
      <trkpt lat="44.44232" lon="1.01337">
        <ele>216.914673</ele>
        <time>2011-04-10T09:44:08Z</time>
      </trkpt>
      <trkpt lat="44.44214" lon="1.01297">
        <ele>216.914673</ele>
        <time>2011-04-10T09:44:21Z</time>
      </trkpt>
      <trkpt lat="44.442" lon="1.01265">
        <ele>219.798584</ele>
        <time>2011-04-10T09:44:35Z</time>
      </trkpt>
      <trkpt lat="44.44195" lon="1.01251">
        <ele>221.240601</ele>
        <time>2011-04-10T09:44:42Z</time>
      </trkpt>
      <trkpt lat="44.44197" lon="1.01242">
        <ele>222.682495</ele>
        <time>2011-04-10T09:44:46Z</time>
      </trkpt>
      <trkpt lat="44.44205" lon="1.0123">
        <ele>223.163208</ele>
        <time>2011-04-10T09:44:53Z</time>
      </trkpt>
      <trkpt lat="44.44212" lon="1.01221">
        <ele>223.163208</ele>
        <time>2011-04-10T09:44:58Z</time>
      </trkpt>
      <trkpt lat="44.44226" lon="1.0119">
        <ele>225.085938</ele>
        <time>2011-04-10T09:45:11Z</time>
      </trkpt>
      <trkpt lat="44.4424" lon="1.01166">
        <ele>227.008545</ele>
        <time>2011-04-10T09:45:22Z</time>
      </trkpt>
      <trkpt lat="44.44258" lon="1.01141">
        <ele>227.489136</ele>
        <time>2011-04-10T09:45:34Z</time>
      </trkpt>
      <trkpt lat="44.44269" lon="1.01127">
        <ele>226.047119</ele>
        <time>2011-04-10T09:45:42Z</time>
      </trkpt>
      <trkpt lat="44.44259" lon="1.01105">
        <ele>226.527832</ele>
        <time>2011-04-10T09:45:54Z</time>
      </trkpt>
      <trkpt lat="44.44252" lon="1.01088">
        <ele>228.450439</ele>
        <time>2011-04-10T09:46:04Z</time>
      </trkpt>
      <trkpt lat="44.44275" lon="1.01067">
        <ele>228.931152</ele>
        <time>2011-04-10T09:46:17Z</time>
      </trkpt>
      <trkpt lat="44.44311" lon="1.01034">
        <ele>227.008545</ele>
        <time>2011-04-10T09:46:29Z</time>
      </trkpt>
      <trkpt lat="44.4435" lon="1.01044">
        <ele>226.047119</ele>
        <time>2011-04-10T09:46:40Z</time>
      </trkpt>
      <trkpt lat="44.44393" lon="1.01077">
        <ele>227.489136</ele>
        <time>2011-04-10T09:46:54Z</time>
      </trkpt>
      <trkpt lat="44.44408" lon="1.01091">
        <ele>227.489136</ele>
        <time>2011-04-10T09:46:59Z</time>
      </trkpt>
      <trkpt lat="44.44434" lon="1.01126">
        <ele>227.008545</ele>
        <time>2011-04-10T09:47:08Z</time>
      </trkpt>
      <trkpt lat="44.44452" lon="1.0116">
        <ele>227.489136</ele>
        <time>2011-04-10T09:47:15Z</time>
      </trkpt>
      <trkpt lat="44.44462" lon="1.01186">
        <ele>226.527832</ele>
        <time>2011-04-10T09:47:20Z</time>
      </trkpt>
      <trkpt lat="44.44482" lon="1.01195">
        <ele>225.085938</ele>
        <time>2011-04-10T09:47:26Z</time>
      </trkpt>
      <trkpt lat="44.4451" lon="1.0116">
        <ele>224.605225</ele>
        <time>2011-04-10T09:47:34Z</time>
      </trkpt>
      <trkpt lat="44.44541" lon="1.01132">
        <ele>224.124512</ele>
        <time>2011-04-10T09:47:41Z</time>
      </trkpt>
      <trkpt lat="44.4456" lon="1.01118">
        <ele>223.643799</ele>
        <time>2011-04-10T09:47:46Z</time>
      </trkpt>
      <trkpt lat="44.44597" lon="1.01096">
        <ele>221.240601</ele>
        <time>2011-04-10T09:47:58Z</time>
      </trkpt>
      <trkpt lat="44.44615" lon="1.01086">
        <ele>220.279175</ele>
        <time>2011-04-10T09:48:03Z</time>
      </trkpt>
      <trkpt lat="44.44629" lon="1.0108">
        <ele>220.279175</ele>
        <time>2011-04-10T09:48:07Z</time>
      </trkpt>
      <trkpt lat="44.4466" lon="1.01071">
        <ele>219.317993</ele>
        <time>2011-04-10T09:48:17Z</time>
      </trkpt>
      <trkpt lat="44.44681" lon="1.01063">
        <ele>220.279175</ele>
        <time>2011-04-10T09:48:25Z</time>
      </trkpt>
      <trkpt lat="44.447" lon="1.0106">
        <ele>219.798584</ele>
        <time>2011-04-10T09:48:32Z</time>
      </trkpt>
      <trkpt lat="44.44766" lon="1.01037">
        <ele>217.395386</ele>
        <time>2011-04-10T09:48:44Z</time>
      </trkpt>
      <trkpt lat="44.44792" lon="1.01037">
        <ele>214.991943</ele>
        <time>2011-04-10T09:48:50Z</time>
      </trkpt>
      <trkpt lat="44.44804" lon="1.01036">
        <ele>213.550049</ele>
        <time>2011-04-10T09:48:54Z</time>
      </trkpt>
      <trkpt lat="44.44823" lon="1.01036">
        <ele>213.550049</ele>
        <time>2011-04-10T09:49:02Z</time>
      </trkpt>
      <trkpt lat="44.44849" lon="1.01054">
        <ele>214.991943</ele>
        <time>2011-04-10T09:49:13Z</time>
      </trkpt>
      <trkpt lat="44.44859" lon="1.01048">
        <ele>215.472656</ele>
        <time>2011-04-10T09:49:17Z</time>
      </trkpt>
      <trkpt lat="44.44904" lon="1.01003">
        <ele>212.108032</ele>
        <time>2011-04-10T09:49:31Z</time>
      </trkpt>
      <trkpt lat="44.44933" lon="1.00971">
        <ele>208.743408</ele>
        <time>2011-04-10T09:49:38Z</time>
      </trkpt>
      <trkpt lat="44.44967" lon="1.00932">
        <ele>204.41748</ele>
        <time>2011-04-10T09:49:45Z</time>
      </trkpt>
      <trkpt lat="44.44993" lon="1.00896">
        <ele>201.052856</ele>
        <time>2011-04-10T09:49:50Z</time>
      </trkpt>
      <trkpt lat="44.45022" lon="1.0084">
        <ele>195.284912</ele>
        <time>2011-04-10T09:49:58Z</time>
      </trkpt>
      <trkpt lat="44.45023" lon="1.00811">
        <ele>192.401123</ele>
        <time>2011-04-10T09:50:04Z</time>
      </trkpt>
      <trkpt lat="44.45019" lon="1.00805">
        <ele>190.478394</ele>
        <time>2011-04-10T09:50:09Z</time>
      </trkpt>
      <trkpt lat="44.45017" lon="1.00798">
        <ele>189.516968</ele>
        <time>2011-04-10T09:50:15Z</time>
      </trkpt>
      <trkpt lat="44.45031" lon="1.00777">
        <ele>186.633179</ele>
        <time>2011-04-10T09:50:22Z</time>
      </trkpt>
      <trkpt lat="44.45056" lon="1.00755">
        <ele>182.307129</ele>
        <time>2011-04-10T09:50:31Z</time>
      </trkpt>
      <trkpt lat="44.45058" lon="1.00755">
        <ele>181.826416</ele>
        <time>2011-04-10T09:50:32Z</time>
      </trkpt>
      <trkpt lat="44.45062" lon="1.00747">
        <ele>180.865234</ele>
        <time>2011-04-10T09:50:36Z</time>
      </trkpt>
      <trkpt lat="44.45068" lon="1.00732">
        <ele>177.50061</ele>
        <time>2011-04-10T09:50:41Z</time>
      </trkpt>
      <trkpt lat="44.45073" lon="1.0072">
        <ele>174.616577</ele>
        <time>2011-04-10T09:50:46Z</time>
      </trkpt>
      <trkpt lat="44.45085" lon="1.00696">
        <ele>169.329468</ele>
        <time>2011-04-10T09:50:54Z</time>
      </trkpt>
      <trkpt lat="44.45091" lon="1.0069">
        <ele>167.887329</ele>
        <time>2011-04-10T09:50:57Z</time>
      </trkpt>
      <trkpt lat="44.45106" lon="1.00671">
        <ele>164.522705</ele>
        <time>2011-04-10T09:51:02Z</time>
      </trkpt>
      <trkpt lat="44.45126" lon="1.00658">
        <ele>161.638916</ele>
        <time>2011-04-10T09:51:09Z</time>
      </trkpt>
      <trkpt lat="44.45144" lon="1.0063">
        <ele>154.909546</ele>
        <time>2011-04-10T09:51:18Z</time>
      </trkpt>
      <trkpt lat="44.45166" lon="1.00605">
        <ele>146.738403</ele>
        <time>2011-04-10T09:51:26Z</time>
      </trkpt>
      <trkpt lat="44.45176" lon="1.00593">
        <ele>143.373657</ele>
        <time>2011-04-10T09:51:30Z</time>
      </trkpt>
      <trkpt lat="44.45189" lon="1.00593">
        <ele>140.009155</ele>
        <time>2011-04-10T09:51:35Z</time>
      </trkpt>
      <trkpt lat="44.45197" lon="1.00592">
        <ele>138.567261</ele>
        <time>2011-04-10T09:51:53Z</time>
      </trkpt>
      <trkpt lat="44.45203" lon="1.00591">
        <ele>140.009155</ele>
        <time>2011-04-10T09:52:38Z</time>
      </trkpt>
      <trkpt lat="44.45214" lon="1.00589">
        <ele>140.489868</ele>
        <time>2011-04-10T09:52:41Z</time>
      </trkpt>
      <trkpt lat="44.45254" lon="1.00592">
        <ele>140.970459</ele>
        <time>2011-04-10T09:52:53Z</time>
      </trkpt>
      <trkpt lat="44.45256" lon="1.00592">
        <ele>140.970459</ele>
        <time>2011-04-10T09:52:54Z</time>
      </trkpt>
      <trkpt lat="44.45273" lon="1.00595">
        <ele>140.970459</ele>
        <time>2011-04-10T09:53:03Z</time>
      </trkpt>
      <trkpt lat="44.45299" lon="1.00595">
        <ele>140.009155</ele>
        <time>2011-04-10T09:53:15Z</time>
      </trkpt>
      <trkpt lat="44.45324" lon="1.00588">
        <ele>140.970459</ele>
        <time>2011-04-10T09:53:26Z</time>
      </trkpt>
      <trkpt lat="44.45352" lon="1.0057">
        <ele>142.412476</ele>
        <time>2011-04-10T09:53:42Z</time>
      </trkpt>
      <trkpt lat="44.45374" lon="1.0055">
        <ele>142.412476</ele>
        <time>2011-04-10T09:53:56Z</time>
      </trkpt>
      <trkpt lat="44.45395" lon="1.00527">
        <ele>143.373657</ele>
        <time>2011-04-10T09:54:10Z</time>
      </trkpt>
      <trkpt lat="44.4542" lon="1.00507">
        <ele>144.815796</ele>
        <time>2011-04-10T09:54:26Z</time>
      </trkpt>
      <trkpt lat="44.45436" lon="1.00491">
        <ele>145.7771</ele>
        <time>2011-04-10T09:54:38Z</time>
      </trkpt>
      <trkpt lat="44.45459" lon="1.00472">
        <ele>146.738403</ele>
        <time>2011-04-10T09:54:52Z</time>
      </trkpt>
      <trkpt lat="44.45483" lon="1.00453">
        <ele>147.699707</ele>
        <time>2011-04-10T09:55:08Z</time>
      </trkpt>
      <trkpt lat="44.45503" lon="1.00441">
        <ele>149.141602</ele>
        <time>2011-04-10T09:55:21Z</time>
      </trkpt>
      <trkpt lat="44.45523" lon="1.00433">
        <ele>149.622314</ele>
        <time>2011-04-10T09:55:33Z</time>
      </trkpt>
      <trkpt lat="44.45549" lon="1.00422">
        <ele>149.622314</ele>
        <time>2011-04-10T09:55:46Z</time>
      </trkpt>
      <trkpt lat="44.45574" lon="1.00413">
        <ele>150.583618</ele>
        <time>2011-04-10T09:55:59Z</time>
      </trkpt>
      <trkpt lat="44.4561" lon="1.00403">
        <ele>150.103027</ele>
        <time>2011-04-10T09:56:16Z</time>
      </trkpt>
      <trkpt lat="44.45635" lon="1.00405">
        <ele>150.583618</ele>
        <time>2011-04-10T09:56:28Z</time>
      </trkpt>
      <trkpt lat="44.4566" lon="1.00381">
        <ele>150.103027</ele>
        <time>2011-04-10T09:56:43Z</time>
      </trkpt>
      <trkpt lat="44.45662" lon="1.00379">
        <ele>150.103027</ele>
        <time>2011-04-10T09:56:45Z</time>
      </trkpt>
      <trkpt lat="44.45666" lon="1.00375">
        <ele>149.622314</ele>
        <time>2011-04-10T09:56:48Z</time>
      </trkpt>
      <trkpt lat="44.45678" lon="1.00363">
        <ele>151.064209</ele>
        <time>2011-04-10T09:56:58Z</time>
      </trkpt>
      <trkpt lat="44.45682" lon="1.00359">
        <ele>152.025757</ele>
        <time>2011-04-10T09:57:01Z</time>
      </trkpt>
      <trkpt lat="44.45706" lon="1.00339">
        <ele>153.467651</ele>
        <time>2011-04-10T09:57:15Z</time>
      </trkpt>
      <trkpt lat="44.4573" lon="1.0032">
        <ele>154.428955</ele>
        <time>2011-04-10T09:57:29Z</time>
      </trkpt>
      <trkpt lat="44.45757" lon="1.00302">
        <ele>155.390259</ele>
        <time>2011-04-10T09:57:44Z</time>
      </trkpt>
      <trkpt lat="44.45778" lon="1.00291">
        <ele>154.428955</ele>
        <time>2011-04-10T09:57:56Z</time>
      </trkpt>
      <trkpt lat="44.45795" lon="1.00284">
        <ele>155.390259</ele>
        <time>2011-04-10T09:58:04Z</time>
      </trkpt>
      <trkpt lat="44.45835" lon="1.00261">
        <ele>158.27417</ele>
        <time>2011-04-10T09:58:20Z</time>
      </trkpt>
      <trkpt lat="44.45878" lon="1.0024">
        <ele>160.196899</ele>
        <time>2011-04-10T09:58:35Z</time>
      </trkpt>
      <trkpt lat="44.4591" lon="1.00231">
        <ele>161.158203</ele>
        <time>2011-04-10T09:58:47Z</time>
      </trkpt>
      <trkpt lat="44.45941" lon="1.00224">
        <ele>161.158203</ele>
        <time>2011-04-10T09:59:00Z</time>
      </trkpt>
      <trkpt lat="44.45979" lon="1.00223">
        <ele>163.561523</ele>
        <time>2011-04-10T09:59:15Z</time>
      </trkpt>
      <trkpt lat="44.45999" lon="1.00224">
        <ele>166.445313</ele>
        <time>2011-04-10T09:59:25Z</time>
      </trkpt>
      <trkpt lat="44.46023" lon="1.00232">
        <ele>168.368042</ele>
        <time>2011-04-10T09:59:40Z</time>
      </trkpt>
      <trkpt lat="44.46046" lon="1.00236">
        <ele>167.406738</ele>
        <time>2011-04-10T09:59:54Z</time>
      </trkpt>
      <trkpt lat="44.46078" lon="1.00239">
        <ele>168.848755</ele>
        <time>2011-04-10T10:00:09Z</time>
      </trkpt>
      <trkpt lat="44.46101" lon="1.00234">
        <ele>170.290649</ele>
        <time>2011-04-10T10:00:21Z</time>
      </trkpt>
      <trkpt lat="44.46126" lon="1.00228">
        <ele>171.252075</ele>
        <time>2011-04-10T10:00:36Z</time>
      </trkpt>
      <trkpt lat="44.46153" lon="1.00225">
        <ele>172.69397</ele>
        <time>2011-04-10T10:00:51Z</time>
      </trkpt>
      <trkpt lat="44.46178" lon="1.00226">
        <ele>173.174683</ele>
        <time>2011-04-10T10:01:05Z</time>
      </trkpt>
      <trkpt lat="44.46203" lon="1.0023">
        <ele>175.09729</ele>
        <time>2011-04-10T10:01:20Z</time>
      </trkpt>
      <trkpt lat="44.46231" lon="1.00235">
        <ele>176.539307</ele>
        <time>2011-04-10T10:01:35Z</time>
      </trkpt>
      <trkpt lat="44.46259" lon="1.00227">
        <ele>177.981201</ele>
        <time>2011-04-10T10:01:50Z</time>
      </trkpt>
      <trkpt lat="44.46277" lon="1.00206">
        <ele>179.903809</ele>
        <time>2011-04-10T10:02:03Z</time>
      </trkpt>
      <trkpt lat="44.46293" lon="1.00177">
        <ele>183.268433</ele>
        <time>2011-04-10T10:02:19Z</time>
      </trkpt>
      <trkpt lat="44.46304" lon="1.00159">
        <ele>185.671753</ele>
        <time>2011-04-10T10:02:31Z</time>
      </trkpt>
      <trkpt lat="44.46317" lon="1.00141">
        <ele>186.152466</ele>
        <time>2011-04-10T10:02:43Z</time>
      </trkpt>
      <trkpt lat="44.46328" lon="1.0013">
        <ele>187.59436</ele>
        <time>2011-04-10T10:02:53Z</time>
      </trkpt>
      <trkpt lat="44.46335" lon="1.00124">
        <ele>187.59436</ele>
        <time>2011-04-10T10:02:58Z</time>
      </trkpt>
      <trkpt lat="44.46356" lon="1.00103">
        <ele>191.439575</ele>
        <time>2011-04-10T10:03:13Z</time>
      </trkpt>
      <trkpt lat="44.46366" lon="1.00095">
        <ele>192.881714</ele>
        <time>2011-04-10T10:03:21Z</time>
      </trkpt>
      <trkpt lat="44.46376" lon="1.00084">
        <ele>192.881714</ele>
        <time>2011-04-10T10:03:28Z</time>
      </trkpt>
      <trkpt lat="44.46384" lon="1.00076">
        <ele>193.843018</ele>
        <time>2011-04-10T10:03:34Z</time>
      </trkpt>
      <trkpt lat="44.46412" lon="1.00062">
        <ele>191.920288</ele>
        <time>2011-04-10T10:03:47Z</time>
      </trkpt>
      <trkpt lat="44.46418" lon="1.00059">
        <ele>191.920288</ele>
        <time>2011-04-10T10:03:48Z</time>
      </trkpt>
      <trkpt lat="44.46436" lon="1.00049">
        <ele>190.478394</ele>
        <time>2011-04-10T10:03:51Z</time>
      </trkpt>
      <trkpt lat="44.46466" lon="1.00032">
        <ele>188.075073</ele>
        <time>2011-04-10T10:03:55Z</time>
      </trkpt>
      <trkpt lat="44.46492" lon="0.99989">
        <ele>180.865234</ele>
        <time>2011-04-10T10:04:03Z</time>
      </trkpt>
      <trkpt lat="44.46496" lon="0.99984">
        <ele>180.384521</ele>
        <time>2011-04-10T10:04:04Z</time>
      </trkpt>
      <trkpt lat="44.46536" lon="0.99943">
        <ele>175.09729</ele>
        <time>2011-04-10T10:04:13Z</time>
      </trkpt>
      <trkpt lat="44.46548" lon="0.9993">
        <ele>174.135864</ele>
        <time>2011-04-10T10:04:16Z</time>
      </trkpt>
      <trkpt lat="44.46571" lon="0.99922">
        <ele>174.135864</ele>
        <time>2011-04-10T10:04:24Z</time>
      </trkpt>
      <trkpt lat="44.46577" lon="0.99909">
        <ele>173.655273</ele>
        <time>2011-04-10T10:04:29Z</time>
      </trkpt>
      <trkpt lat="44.46586" lon="0.99883">
        <ele>171.732666</ele>
        <time>2011-04-10T10:04:36Z</time>
      </trkpt>
      <trkpt lat="44.46594" lon="0.99874">
        <ele>169.329468</ele>
        <time>2011-04-10T10:04:42Z</time>
      </trkpt>
      <trkpt lat="44.46598" lon="0.99867">
        <ele>166.445313</ele>
        <time>2011-04-10T10:04:50Z</time>
      </trkpt>
      <trkpt lat="44.46603" lon="0.99862">
        <ele>166.445313</ele>
        <time>2011-04-10T10:04:54Z</time>
      </trkpt>
      <trkpt lat="44.46603" lon="0.99857">
        <ele>166.445313</ele>
        <time>2011-04-10T10:04:57Z</time>
      </trkpt>
    </trkseg>
  </trk>
</gpx>